Time,TemperatureF,DewpointF,PressureIn,WindDirection,WindDirectionDegrees,WindSpeedMPH,WindSpeedGustMPH,Humidity,HourlyPrecipIn,Conditions,Clouds,dailyrainin,SoftwareType,DateUTC
2013-03-02 00:00:00,34.8,28.1,28.88,NW,304,0.0,0.0,76,0.00,,---,0.00,VWS V14.00,2013-03-02 05:00:00,
2013-03-02 00:05:00,34.8,28.1,28.88,WNW,300,2.2,2.2,76,0.00,,---,0.00,VWS V14.00,2013-03-02 05:05:00,
2013-03-02 00:10:00,34.8,28.1,28.88,NW,315,0.0,0.0,76,0.00,,---,0.00,VWS V14.00,2013-03-02 05:10:00,
2013-03-02 00:15:00,34.8,28.1,28.88,WNW,301,0.0,3.6,76,0.00,,---,0.00,VWS V14.00,2013-03-02 05:15:00,
2013-03-02 00:20:00,34.7,27.9,28.88,WNW,284,0.0,0.0,76,0.00,,---,0.00,VWS V14.00,2013-03-02 05:20:00,
2013-03-02 00:25:00,34.7,27.9,28.88,West,275,3.1,3.1,76,0.00,,---,0.00,VWS V14.00,2013-03-02 05:25:00,
2013-03-02 00:30:00,34.7,27.9,28.88,West,274,2.2,2.2,76,0.00,,---,0.00,VWS V14.00,2013-03-02 05:30:00,
2013-03-02 00:35:00,34.7,27.9,28.88,NW,323,5.8,5.8,76,0.00,,---,0.00,VWS V14.00,2013-03-02 05:35:00,
2013-03-02 00:40:00,34.5,27.7,28.88,WNW,286,2.7,4.5,76,0.00,,---,0.00,VWS V14.00,2013-03-02 05:40:00,
2013-03-02 00:45:00,34.5,27.7,28.88,West,263,4.0,4.0,76,0.00,,---,0.00,VWS V14.00,2013-03-02 05:45:00,
2013-03-02 00:50:00,34.5,27.7,28.88,WNW,290,3.1,5.8,76,0.00,,---,0.00,VWS V14.00,2013-03-02 05:50:00,
2013-03-02 00:55:00,34.3,27.5,28.88,NNW,332,3.6,3.6,76,0.00,,---,0.00,VWS V14.00,2013-03-02 05:55:00,
2013-03-02 01:00:00,34.3,27.5,28.88,WNW,293,2.7,2.7,76,0.00,,---,0.00,VWS V14.00,2013-03-02 06:00:00,
2013-03-02 01:01:00,34.3,27.5,28.88,West,268,3.6,3.6,76,0.00,,---,0.00,VWS V14.00,2013-03-02 06:01:00,
2013-03-02 01:05:00,34.3,27.5,28.88,WNW,282,3.6,3.6,76,0.00,,---,0.00,VWS V14.00,2013-03-02 06:05:00,
2013-03-02 01:06:00,34.3,27.5,28.88,West,271,3.1,3.6,76,0.00,,---,0.00,VWS V14.00,2013-03-02 06:06:00,
2013-03-02 01:10:00,34.3,27.5,28.88,WNW,291,2.2,2.2,76,0.00,,---,0.00,VWS V14.00,2013-03-02 06:10:00,
2013-03-02 01:11:00,34.1,27.4,28.88,NW,324,2.7,2.7,76,0.00,,---,0.00,VWS V14.00,2013-03-02 06:11:00,
2013-03-02 01:15:00,34.1,27.4,28.88,WNW,294,5.4,5.4,76,0.00,,---,0.00,VWS V14.00,2013-03-02 06:15:00,
2013-03-02 01:16:00,34.1,27.4,28.88,WNW,294,5.4,5.4,76,0.00,,---,0.00,VWS V14.00,2013-03-02 06:16:00,
2013-03-02 01:20:00,34.1,27.4,28.88,WNW,296,3.1,3.1,76,0.00,,---,0.00,VWS V14.00,2013-03-02 06:20:00,
2013-03-02 01:21:00,34.1,27.4,28.88,WNW,296,2.2,3.1,76,0.00,,---,0.00,VWS V14.00,2013-03-02 06:21:00,
2013-03-02 01:25:00,34.1,27.4,28.88,NW,317,2.7,4.9,76,0.00,,---,0.00,VWS V14.00,2013-03-02 06:25:00,
2013-03-02 01:26:00,34.1,27.4,28.88,WNW,286,4.0,4.9,76,0.00,,---,0.00,VWS V14.00,2013-03-02 06:26:00,
2013-03-02 01:30:00,33.9,27.2,28.88,West,276,2.7,2.7,76,0.00,,---,0.00,VWS V14.00,2013-03-02 06:30:00,
2013-03-02 01:31:00,33.9,27.2,28.88,West,276,2.2,2.7,76,0.00,,---,0.00,VWS V14.00,2013-03-02 06:31:00,
2013-03-02 01:35:00,33.9,27.2,28.88,West,260,3.1,4.0,76,0.00,,---,0.00,VWS V14.00,2013-03-02 06:35:00,
2013-03-02 01:36:00,33.9,27.2,28.88,West,270,4.0,4.0,76,0.00,,---,0.00,VWS V14.00,2013-03-02 06:36:00,
2013-03-02 01:40:00,33.9,27.2,28.88,NW,315,3.1,3.1,76,0.00,,---,0.00,VWS V14.00,2013-03-02 06:40:00,
2013-03-02 01:41:00,33.9,27.2,28.88,NW,314,4.0,4.0,76,0.00,,---,0.00,VWS V14.00,2013-03-02 06:41:00,
2013-03-02 01:45:00,33.9,27.2,28.88,NW,304,0.0,0.0,76,0.00,,---,0.00,VWS V14.00,2013-03-02 06:45:00,
2013-03-02 01:46:00,33.9,27.2,28.88,NW,304,0.0,0.0,76,0.00,,---,0.00,VWS V14.00,2013-03-02 06:46:00,
2013-03-02 01:50:00,33.8,27.0,28.88,WNW,302,2.2,3.6,76,0.00,,---,0.00,VWS V14.00,2013-03-02 06:50:00,
2013-03-02 01:51:00,33.8,27.0,28.88,WNW,302,2.2,3.6,76,0.00,,---,0.00,VWS V14.00,2013-03-02 06:51:00,
2013-03-02 01:55:00,33.8,27.0,28.88,NW,314,4.9,5.4,76,0.00,,---,0.00,VWS V14.00,2013-03-02 06:55:00,
2013-03-02 01:56:00,33.8,27.0,28.88,NW,312,2.7,5.4,76,0.00,,---,0.00,VWS V14.00,2013-03-02 06:56:00,
2013-03-02 02:00:00,33.6,26.8,28.88,NW,319,3.6,5.8,76,0.00,,---,0.00,VWS V14.00,2013-03-02 07:00:00,
2013-03-02 02:01:00,33.6,26.8,28.88,WNW,299,3.6,5.8,76,0.00,,---,0.00,VWS V14.00,2013-03-02 07:01:00,
2013-03-02 02:05:00,33.6,26.8,28.88,West,267,0.0,3.6,76,0.00,,---,0.00,VWS V14.00,2013-03-02 07:05:00,
2013-03-02 02:06:00,33.6,26.8,28.88,West,280,2.2,2.2,76,0.00,,---,0.00,VWS V14.00,2013-03-02 07:06:00,
2013-03-02 02:10:00,33.6,26.8,28.88,NW,305,4.0,4.0,76,0.00,,---,0.00,VWS V14.00,2013-03-02 07:10:00,
2013-03-02 02:11:00,33.6,26.8,28.88,NW,305,2.7,4.0,76,0.00,,---,0.00,VWS V14.00,2013-03-02 07:11:00,
2013-03-02 02:15:00,33.6,26.8,28.88,WNW,295,5.8,5.8,76,0.00,,---,0.00,VWS V14.00,2013-03-02 07:15:00,
2013-03-02 02:16:00,33.6,26.8,28.88,WNW,295,5.8,5.8,76,0.00,,---,0.00,VWS V14.00,2013-03-02 07:16:00,
2013-03-02 02:20:00,33.6,26.8,28.88,West,276,3.1,3.1,76,0.00,,---,0.00,VWS V14.00,2013-03-02 07:20:00,
2013-03-02 02:21:00,33.6,26.8,28.88,West,275,4.0,4.0,76,0.00,,---,0.00,VWS V14.00,2013-03-02 07:21:00,
2013-03-02 02:26:00,33.4,28.2,28.88,NW,304,0.0,3.6,81,0.00,,---,0.00,VWS V14.00,2013-03-02 07:26:00,
2013-03-02 02:31:00,33.4,28.2,28.88,NW,304,3.6,3.6,81,0.00,,---,0.00,VWS V14.00,2013-03-02 07:31:00,
2013-03-02 02:36:00,33.4,28.2,28.88,NW,305,0.0,4.0,81,0.00,,---,0.00,VWS V14.00,2013-03-02 07:36:00,
2013-03-02 02:41:00,33.2,28.0,28.88,WNW,291,3.1,3.1,81,0.00,,---,0.00,VWS V14.00,2013-03-02 07:41:00,
2013-03-02 02:46:00,33.2,28.0,28.88,NW,306,2.7,3.1,81,0.00,,---,0.00,VWS V14.00,2013-03-02 07:46:00,
2013-03-02 02:51:00,33.2,28.0,28.88,West,273,2.7,2.7,81,0.00,,---,0.00,VWS V14.00,2013-03-02 07:51:00,
2013-03-02 02:56:00,33.2,28.0,28.88,NW,305,2.7,2.7,81,0.00,,---,0.00,VWS V14.00,2013-03-02 07:56:00,
2013-03-02 02:57:00,33.2,28.0,28.88,WNW,301,0.0,2.7,81,0.00,,---,0.00,VWS V14.00,2013-03-02 07:57:00,
2013-03-02 03:01:00,33.2,28.0,28.85,NW,306,2.7,2.7,81,0.00,,---,0.00,VWS V14.00,2013-03-02 08:01:00,
2013-03-02 03:02:00,33.2,28.0,28.85,WNW,294,3.6,4.0,81,0.00,,---,0.00,VWS V14.00,2013-03-02 08:02:00,
2013-03-02 03:06:00,33.0,27.9,28.85,West,263,3.1,6.3,81,0.00,,---,0.00,VWS V14.00,2013-03-02 08:06:00,
2013-03-02 03:07:00,33.0,27.9,28.85,West,271,3.1,4.0,81,0.00,,---,0.00,VWS V14.00,2013-03-02 08:07:00,
2013-03-02 03:11:00,33.0,27.9,28.85,WNW,294,2.7,4.0,81,0.00,,---,0.00,VWS V14.00,2013-03-02 08:11:00,
2013-03-02 03:12:00,33.0,27.9,28.85,WNW,298,2.7,5.4,81,0.00,,---,0.00,VWS V14.00,2013-03-02 08:12:00,
2013-03-02 03:16:00,32.9,27.7,28.88,NW,305,3.6,4.9,81,0.00,,---,0.00,VWS V14.00,2013-03-02 08:16:00,
2013-03-02 03:17:00,32.9,27.7,28.88,NW,309,3.1,6.3,81,0.00,,---,0.00,VWS V14.00,2013-03-02 08:17:00,
2013-03-02 03:21:00,32.9,27.7,28.88,WNW,302,0.0,2.7,81,0.00,,---,0.00,VWS V14.00,2013-03-02 08:21:00,
2013-03-02 03:22:00,32.9,27.7,28.88,WNW,302,0.0,0.0,81,0.00,,---,0.00,VWS V14.00,2013-03-02 08:22:00,
2013-03-02 03:26:00,32.9,27.7,28.88,WNW,293,3.1,3.1,81,0.00,,---,0.00,VWS V14.00,2013-03-02 08:26:00,
2013-03-02 03:27:00,32.9,27.7,28.88,WNW,293,4.0,4.5,81,0.00,,---,0.00,VWS V14.00,2013-03-02 08:27:00,
2013-03-02 03:31:00,32.9,27.7,28.85,NW,318,2.7,3.1,81,0.00,,---,0.00,VWS V14.00,2013-03-02 08:31:00,
2013-03-02 03:32:00,32.9,27.7,28.85,WNW,289,3.1,3.6,81,0.00,,---,0.00,VWS V14.00,2013-03-02 08:32:00,
2013-03-02 03:36:00,32.9,27.7,28.85,WNW,300,3.1,3.6,81,0.00,,---,0.00,VWS V14.00,2013-03-02 08:36:00,
2013-03-02 03:37:00,32.9,27.7,28.85,NW,310,4.0,5.8,81,0.00,,---,0.00,VWS V14.00,2013-03-02 08:37:00,
2013-03-02 03:41:00,32.9,27.7,28.85,NW,309,4.0,5.4,81,0.00,,---,0.00,VWS V14.00,2013-03-02 08:41:00,
2013-03-02 03:42:00,32.9,27.7,28.85,WSW,250,5.4,5.8,81,0.00,,---,0.00,VWS V14.00,2013-03-02 08:42:00,
2013-03-02 03:46:00,32.7,27.5,28.85,West,272,3.1,5.4,81,0.00,,---,0.00,VWS V14.00,2013-03-02 08:46:00,
2013-03-02 03:47:00,32.7,27.5,28.85,WNW,302,3.6,5.4,81,0.00,,---,0.00,VWS V14.00,2013-03-02 08:47:00,
2013-03-02 03:51:00,32.5,27.3,28.85,NW,317,3.6,3.6,81,0.00,,---,0.00,VWS V14.00,2013-03-02 08:51:00,
2013-03-02 03:52:00,32.5,27.3,28.85,WNW,293,4.9,4.9,81,0.00,,---,0.00,VWS V14.00,2013-03-02 08:52:00,
2013-03-02 03:56:00,32.5,27.3,28.85,NW,308,4.0,4.0,81,0.00,,---,0.00,VWS V14.00,2013-03-02 08:56:00,
2013-03-02 03:57:00,32.3,27.1,28.85,North,2,3.1,4.0,81,0.00,,---,0.00,VWS V14.00,2013-03-02 08:57:00,
2013-03-02 04:01:00,32.3,27.1,28.85,NW,310,3.6,3.6,81,0.00,,---,0.00,VWS V14.00,2013-03-02 09:01:00,
2013-03-02 04:02:00,32.3,27.1,28.85,WNW,292,2.2,3.6,81,0.00,,---,0.00,VWS V14.00,2013-03-02 09:02:00,
2013-03-02 04:06:00,32.3,27.1,28.85,WNW,302,4.0,4.0,81,0.00,,---,0.00,VWS V14.00,2013-03-02 09:06:00,
2013-03-02 04:07:00,32.3,27.1,28.85,WNW,302,4.0,4.0,81,0.00,,---,0.00,VWS V14.00,2013-03-02 09:07:00,
2013-03-02 04:11:00,32.3,27.1,28.85,NW,314,2.2,2.2,81,0.00,,---,0.00,VWS V14.00,2013-03-02 09:11:00,
2013-03-02 04:12:00,32.3,27.1,28.85,NW,314,2.2,2.2,81,0.00,,---,0.00,VWS V14.00,2013-03-02 09:12:00,
2013-03-02 04:16:00,32.3,27.1,28.85,WNW,295,2.7,2.7,81,0.00,,---,0.00,VWS V14.00,2013-03-02 09:16:00,
2013-03-02 04:17:00,32.3,27.1,28.85,WNW,295,2.7,2.7,81,0.00,,---,0.00,VWS V14.00,2013-03-02 09:17:00,
2013-03-02 04:21:00,32.1,27.0,28.85,WNW,300,2.7,2.7,81,0.00,,---,0.00,VWS V14.00,2013-03-02 09:21:00,
2013-03-02 04:22:00,32.1,27.0,28.85,WNW,300,2.7,2.7,81,0.00,,---,0.00,VWS V14.00,2013-03-02 09:22:00,
2013-03-02 04:26:00,32.1,27.0,28.85,NW,310,5.8,5.8,81,0.00,,---,0.00,VWS V14.00,2013-03-02 09:26:00,
2013-03-02 04:27:00,32.0,26.8,28.85,NW,310,5.8,5.8,81,0.00,,---,0.00,VWS V14.00,2013-03-02 09:27:00,
2013-03-02 04:28:00,32.0,26.8,28.85,WNW,299,3.1,3.1,81,0.00,,---,0.00,VWS V14.00,2013-03-02 09:28:00,
2013-03-02 04:31:00,32.0,26.8,28.85,WNW,303,2.7,2.7,81,0.00,,---,0.00,VWS V14.00,2013-03-02 09:31:00,
2013-03-02 04:32:00,32.0,26.8,28.85,WNW,303,2.7,2.7,81,0.00,,---,0.00,VWS V14.00,2013-03-02 09:32:00,
2013-03-02 04:33:00,32.0,26.8,28.85,WNW,303,2.7,2.7,81,0.00,,---,0.00,VWS V14.00,2013-03-02 09:33:00,
2013-03-02 04:36:00,31.8,26.6,28.85,WNW,303,2.7,2.7,81,0.00,,---,0.00,VWS V14.00,2013-03-02 09:36:00,
2013-03-02 04:37:00,31.8,26.6,28.85,WNW,303,2.7,2.7,81,0.00,,---,0.00,VWS V14.00,2013-03-02 09:37:00,
2013-03-02 04:38:00,31.8,26.6,28.85,WNW,303,2.7,2.7,81,0.00,,---,0.00,VWS V14.00,2013-03-02 09:38:00,
2013-03-02 04:41:00,31.8,26.6,28.85,West,265,4.0,4.0,81,0.00,,---,0.00,VWS V14.00,2013-03-02 09:41:00,
2013-03-02 04:42:00,31.8,26.6,28.85,West,265,4.0,4.0,81,0.00,,---,0.00,VWS V14.00,2013-03-02 09:42:00,
2013-03-02 04:43:00,31.6,26.5,28.85,West,265,4.0,4.0,81,0.00,,---,0.00,VWS V14.00,2013-03-02 09:43:00,
2013-03-02 04:46:00,31.6,26.5,28.85,NW,307,0.0,2.7,81,0.00,,---,0.00,VWS V14.00,2013-03-02 09:46:00,
2013-03-02 04:47:00,31.6,26.5,28.85,NW,307,0.0,2.7,81,0.00,,---,0.00,VWS V14.00,2013-03-02 09:47:00,
2013-03-02 04:48:00,31.6,26.5,28.85,NW,307,0.0,0.0,81,0.00,,---,0.00,VWS V14.00,2013-03-02 09:48:00,
2013-03-02 04:51:00,31.4,30.4,28.85,West,280,2.2,2.2,96,0.00,,---,0.00,VWS V14.00,2013-03-02 09:51:00,
2013-03-02 04:52:00,31.4,30.4,28.85,West,280,2.2,2.2,96,0.00,,---,0.00,VWS V14.00,2013-03-02 09:52:00,
2013-03-02 04:53:00,31.4,30.4,28.85,West,280,2.2,2.2,96,0.00,,---,0.00,VWS V14.00,2013-03-02 09:53:00,
2013-03-02 04:56:00,31.4,30.4,28.85,WNW,302,3.1,3.1,96,0.00,,---,0.00,VWS V14.00,2013-03-02 09:56:00,
2013-03-02 04:57:00,31.4,30.4,28.85,WNW,302,0.0,3.1,96,0.00,,---,0.00,VWS V14.00,2013-03-02 09:57:00,
2013-03-02 04:58:00,31.4,30.4,28.85,WNW,302,0.0,3.1,96,0.00,,---,0.00,VWS V14.00,2013-03-02 09:58:00,
2013-03-02 05:01:00,31.4,30.4,28.85,WNW,297,3.1,3.1,96,0.00,,---,0.00,VWS V14.00,2013-03-02 10:01:00,
2013-03-02 05:02:00,31.4,30.4,28.85,West,276,2.2,3.1,96,0.00,,---,0.00,VWS V14.00,2013-03-02 10:02:00,
2013-03-02 05:03:00,31.6,30.6,28.85,West,276,2.2,2.2,96,0.00,,---,0.00,VWS V14.00,2013-03-02 10:03:00,
2013-03-02 05:07:00,31.6,30.6,28.85,NW,307,2.2,2.2,96,0.00,,---,0.00,VWS V14.00,2013-03-02 10:07:00,
2013-03-02 05:09:00,31.6,30.6,28.85,NW,319,0.0,0.0,96,0.00,,---,0.00,VWS V14.00,2013-03-02 10:09:00,
2013-03-02 05:13:00,31.6,30.6,28.85,NW,319,0.0,0.0,96,0.00,,---,0.00,VWS V14.00,2013-03-02 10:13:00,
2013-03-02 05:15:00,31.6,30.6,28.85,WNW,283,2.7,2.7,96,0.00,,---,0.00,VWS V14.00,2013-03-02 10:15:00,
2013-03-02 05:16:00,31.6,30.6,28.85,WNW,299,0.0,0.0,96,0.00,,---,0.00,VWS V14.00,2013-03-02 10:16:00,
2013-03-02 05:18:00,31.6,30.6,28.85,WNW,302,2.7,2.7,96,0.00,,---,0.00,VWS V14.00,2013-03-02 10:18:00,
2013-03-02 05:20:00,31.6,30.6,28.85,WNW,302,2.7,2.7,96,0.00,,---,0.00,VWS V14.00,2013-03-02 10:20:00,
2013-03-02 05:21:00,31.6,30.6,28.85,WNW,298,2.7,2.7,96,0.00,,---,0.00,VWS V14.00,2013-03-02 10:21:00,
2013-03-02 05:23:00,31.6,30.6,28.85,WNW,298,5.4,5.4,96,0.00,,---,0.00,VWS V14.00,2013-03-02 10:23:00,
2013-03-02 05:25:00,31.6,30.6,28.85,NW,311,0.0,3.6,96,0.00,,---,0.00,VWS V14.00,2013-03-02 10:25:00,
2013-03-02 05:26:00,31.6,30.6,28.85,WNW,295,3.1,3.1,96,0.00,,---,0.00,VWS V14.00,2013-03-02 10:26:00,
2013-03-02 05:28:00,31.6,30.6,28.85,NW,322,3.1,3.1,96,0.00,,---,0.00,VWS V14.00,2013-03-02 10:28:00,
2013-03-02 05:30:00,31.6,30.6,28.85,NW,319,0.0,3.1,96,0.00,,---,0.00,VWS V14.00,2013-03-02 10:30:00,
2013-03-02 05:31:00,31.6,30.6,28.85,West,274,3.1,3.1,96,0.00,,---,0.00,VWS V14.00,2013-03-02 10:31:00,
2013-03-02 05:33:00,31.6,30.6,28.85,WNW,288,3.1,3.1,96,0.00,,---,0.00,VWS V14.00,2013-03-02 10:33:00,
2013-03-02 05:35:00,31.6,30.6,28.85,NW,311,2.2,2.2,96,0.00,,---,0.00,VWS V14.00,2013-03-02 10:35:00,
2013-03-02 05:36:00,31.4,30.4,28.85,NW,311,2.2,2.2,96,0.00,,---,0.00,VWS V14.00,2013-03-02 10:36:00,
2013-03-02 05:38:00,31.4,30.4,28.85,WNW,302,2.7,2.7,96,0.00,,---,0.00,VWS V14.00,2013-03-02 10:38:00,
2013-03-02 05:40:00,31.4,30.4,28.85,WNW,302,2.7,2.7,96,0.00,,---,0.00,VWS V14.00,2013-03-02 10:40:00,
2013-03-02 05:41:00,31.4,30.4,28.85,NW,321,5.4,5.4,96,0.00,,---,0.00,VWS V14.00,2013-03-02 10:41:00,
2013-03-02 05:43:00,31.4,30.4,28.85,NW,321,5.4,5.4,96,0.00,,---,0.00,VWS V14.00,2013-03-02 10:43:00,
2013-03-02 05:45:00,31.2,30.2,28.85,NW,321,5.4,5.4,96,0.00,,---,0.00,VWS V14.00,2013-03-02 10:45:00,
2013-03-02 05:46:00,31.2,30.2,28.85,WNW,294,3.6,5.4,96,0.00,,---,0.00,VWS V14.00,2013-03-02 10:46:00,
2013-03-02 05:49:00,31.4,30.4,28.85,WNW,294,3.6,3.6,96,0.00,,---,0.00,VWS V14.00,2013-03-02 10:49:00,
2013-03-02 05:51:00,31.4,30.4,28.85,NW,306,2.7,3.6,96,0.00,,---,0.00,VWS V14.00,2013-03-02 10:51:00,
2013-03-02 05:55:00,31.4,30.4,28.85,NW,307,3.1,4.0,96,0.00,,---,0.00,VWS V14.00,2013-03-02 10:55:00,
2013-03-02 05:56:00,31.4,30.4,28.85,NW,307,3.1,3.1,96,0.00,,---,0.00,VWS V14.00,2013-03-02 10:56:00,
2013-03-02 06:00:00,31.4,30.4,28.85,WNW,297,0.0,0.0,96,0.00,,---,0.00,VWS V14.00,2013-03-02 11:00:00,
2013-03-02 06:01:00,31.4,30.4,28.85,WNW,297,0.0,0.0,96,0.00,,---,0.00,VWS V14.00,2013-03-02 11:01:00,
2013-03-02 06:05:00,31.4,30.4,28.85,WNW,297,0.0,0.0,96,0.00,,---,0.00,VWS V14.00,2013-03-02 11:05:00,
2013-03-02 06:06:00,31.4,30.4,28.85,WNW,297,0.0,0.0,96,0.00,,---,0.00,VWS V14.00,2013-03-02 11:06:00,
2013-03-02 06:10:00,31.4,30.4,28.85,WNW,297,0.0,0.0,96,0.00,,---,0.00,VWS V14.00,2013-03-02 11:10:00,
2013-03-02 06:11:00,31.4,30.4,28.85,WNW,297,0.0,0.0,96,0.00,,---,0.00,VWS V14.00,2013-03-02 11:11:00,
2013-03-02 06:14:00,31.4,30.4,28.85,WNW,297,0.0,0.0,96,0.00,,---,0.00,VWS V14.00,2013-03-02 11:14:00,
2013-03-02 06:16:00,31.4,30.4,28.85,WNW,297,0.0,0.0,96,0.00,,---,0.00,VWS V14.00,2013-03-02 11:16:00,
2013-03-02 06:19:00,31.2,30.2,28.85,West,275,3.6,3.6,96,0.00,,---,0.00,VWS V14.00,2013-03-02 11:19:00,
2013-03-02 06:21:00,31.2,30.2,28.85,West,275,3.6,3.6,96,0.00,,---,0.00,VWS V14.00,2013-03-02 11:21:00,
2013-03-02 06:22:00,31.2,30.2,28.85,West,275,3.6,3.6,96,0.00,,---,0.00,VWS V14.00,2013-03-02 11:22:00,
2013-03-02 06:24:00,31.2,30.2,28.85,NW,305,2.7,2.7,96,0.00,,---,0.00,VWS V14.00,2013-03-02 11:24:00,
2013-03-02 06:26:00,31.2,30.2,28.85,WNW,303,4.9,4.9,96,0.00,,---,0.00,VWS V14.00,2013-03-02 11:26:00,
2013-03-02 06:27:00,31.2,30.2,28.85,WNW,303,4.9,4.9,96,0.00,,---,0.00,VWS V14.00,2013-03-02 11:27:00,
2013-03-02 06:29:00,31.2,30.2,28.85,WNW,303,4.9,4.9,96,0.00,,---,0.00,VWS V14.00,2013-03-02 11:29:00,
2013-03-02 06:31:00,31.2,30.2,28.85,WNW,303,4.9,4.9,96,0.00,,---,0.00,VWS V14.00,2013-03-02 11:31:00,
2013-03-02 06:32:00,31.2,30.2,28.85,WNW,303,4.9,4.9,96,0.00,,---,0.00,VWS V14.00,2013-03-02 11:32:00,
2013-03-02 06:34:00,31.2,30.2,28.85,West,262,0.0,0.0,96,0.00,,---,0.00,VWS V14.00,2013-03-02 11:34:00,
2013-03-02 06:36:00,31.2,30.2,28.85,West,262,0.0,0.0,96,0.00,,---,0.00,VWS V14.00,2013-03-02 11:36:00,
2013-03-02 06:37:00,31.2,30.2,28.85,NW,304,0.0,0.0,96,0.00,,---,0.00,VWS V14.00,2013-03-02 11:37:00,
2013-03-02 06:40:00,31.2,30.2,28.85,NW,304,0.0,0.0,96,0.00,,---,0.00,VWS V14.00,2013-03-02 11:40:00,
2013-03-02 06:41:00,31.2,30.2,28.85,NW,304,0.0,0.0,96,0.00,,---,0.00,VWS V14.00,2013-03-02 11:41:00,
2013-03-02 06:42:00,31.2,30.2,28.85,NW,304,0.0,0.0,96,0.00,,---,0.00,VWS V14.00,2013-03-02 11:42:00,
2013-03-02 06:45:00,31.2,30.2,28.85,NW,311,3.1,3.1,96,0.00,,---,0.00,VWS V14.00,2013-03-02 11:45:00,
2013-03-02 06:46:00,31.2,30.2,28.85,NW,304,2.2,3.1,96,0.00,,---,0.00,VWS V14.00,2013-03-02 11:46:00,
2013-03-02 06:47:00,31.2,30.2,28.85,NW,304,2.2,2.2,96,0.00,,---,0.00,VWS V14.00,2013-03-02 11:47:00,
2013-03-02 06:50:00,31.2,30.2,28.85,WNW,292,3.1,3.1,96,0.00,,---,0.00,VWS V14.00,2013-03-02 11:50:00,
2013-03-02 06:51:00,31.2,30.2,28.85,WNW,292,3.1,3.1,96,0.00,,---,0.00,VWS V14.00,2013-03-02 11:51:00,
2013-03-02 06:52:00,31.2,30.2,28.85,WNW,292,3.1,3.1,96,0.00,,---,0.00,VWS V14.00,2013-03-02 11:52:00,
2013-03-02 06:55:00,31.2,30.2,28.85,WNW,292,3.1,3.1,96,0.00,,---,0.00,VWS V14.00,2013-03-02 11:55:00,
2013-03-02 06:56:00,31.2,30.2,28.85,WNW,292,3.1,3.1,96,0.00,,---,0.00,VWS V14.00,2013-03-02 11:56:00,
2013-03-02 06:57:00,31.2,30.2,28.85,WNW,292,3.1,3.1,96,0.00,,---,0.00,VWS V14.00,2013-03-02 11:57:00,
2013-03-02 07:00:00,31.2,30.2,28.85,NW,326,2.7,2.7,96,0.00,,---,0.00,VWS V14.00,2013-03-02 12:00:00,
2013-03-02 07:01:00,31.2,30.2,28.85,NW,326,2.7,2.7,96,0.00,,---,0.00,VWS V14.00,2013-03-02 12:01:00,
2013-03-02 07:02:00,31.2,30.2,28.85,NW,326,2.7,2.7,96,0.00,,---,0.00,VWS V14.00,2013-03-02 12:02:00,
2013-03-02 07:05:00,31.2,30.2,28.85,NW,326,2.7,2.7,96,0.00,,---,0.00,VWS V14.00,2013-03-02 12:05:00,
2013-03-02 07:06:00,31.2,30.2,28.85,NW,326,2.7,2.7,96,0.00,,---,0.00,VWS V14.00,2013-03-02 12:06:00,
2013-03-02 07:07:00,31.2,30.2,28.85,NW,326,2.7,2.7,96,0.00,,---,0.00,VWS V14.00,2013-03-02 12:07:00,
2013-03-02 07:10:00,31.2,30.2,28.88,NW,326,2.7,2.7,96,0.00,,---,0.00,VWS V14.00,2013-03-02 12:10:00,
2013-03-02 07:12:00,31.2,30.2,28.88,NW,307,3.1,3.1,96,0.00,,---,0.00,VWS V14.00,2013-03-02 12:12:00,
2013-03-02 07:15:00,31.2,30.2,28.88,NW,308,2.7,2.7,96,0.00,,---,0.00,VWS V14.00,2013-03-02 12:15:00,
2013-03-02 07:17:00,31.2,30.2,28.88,NW,308,2.7,2.7,96,0.00,,---,0.00,VWS V14.00,2013-03-02 12:17:00,
2013-03-02 07:20:00,31.2,30.2,28.88,NW,305,4.0,4.0,96,0.00,,---,0.00,VWS V14.00,2013-03-02 12:20:00,
2013-03-02 07:22:00,31.2,30.2,28.88,WNW,291,0.0,4.0,96,0.00,,---,0.00,VWS V14.00,2013-03-02 12:22:00,
2013-03-02 07:25:00,31.2,30.2,28.88,NW,311,2.7,2.7,96,0.00,,---,0.00,VWS V14.00,2013-03-02 12:25:00,
2013-03-02 07:27:00,31.2,30.2,28.88,NW,311,2.7,2.7,96,0.00,,---,0.00,VWS V14.00,2013-03-02 12:27:00,
2013-03-02 07:30:00,31.2,30.2,28.88,NW,311,2.7,2.7,96,0.00,,---,0.00,VWS V14.00,2013-03-02 12:30:00,
2013-03-02 07:32:00,31.2,30.2,28.88,WNW,301,3.6,3.6,96,0.00,,---,0.00,VWS V14.00,2013-03-02 12:32:00,
2013-03-02 07:35:00,31.2,30.2,28.88,West,271,3.6,3.6,96,0.00,,---,0.00,VWS V14.00,2013-03-02 12:35:00,
2013-03-02 07:37:00,31.2,30.2,28.88,West,271,3.6,3.6,96,0.00,,---,0.00,VWS V14.00,2013-03-02 12:37:00,
2013-03-02 07:40:00,31.2,30.2,28.88,WNW,289,0.0,0.0,96,0.00,,---,0.00,VWS V14.00,2013-03-02 12:40:00,
2013-03-02 07:42:00,31.2,30.2,28.88,WNW,289,0.0,0.0,96,0.00,,---,0.00,VWS V14.00,2013-03-02 12:42:00,
2013-03-02 07:45:00,31.4,30.4,28.88,NW,318,3.6,3.6,96,0.00,,---,0.00,VWS V14.00,2013-03-02 12:45:00,
2013-03-02 07:47:00,31.4,30.4,28.88,West,266,3.1,4.0,96,0.00,,---,0.00,VWS V14.00,2013-03-02 12:47:00,
2013-03-02 07:50:00,31.4,30.4,28.88,WNW,303,2.7,2.7,96,0.00,,---,0.00,VWS V14.00,2013-03-02 12:50:00,
2013-03-02 07:52:00,31.4,30.4,28.88,NW,314,3.1,3.1,96,0.00,,---,0.00,VWS V14.00,2013-03-02 12:52:00,
2013-03-02 07:55:00,31.4,30.4,28.88,NW,311,2.7,3.6,96,0.00,,---,0.00,VWS V14.00,2013-03-02 12:55:00,
2013-03-02 07:57:00,31.4,30.4,28.88,NNE,27,3.6,3.6,96,0.00,,---,0.00,VWS V14.00,2013-03-02 12:57:00,
2013-03-02 08:00:00,31.4,30.4,28.88,NW,320,2.2,3.1,96,0.00,,---,0.00,VWS V14.00,2013-03-02 13:00:00,
2013-03-02 08:02:00,31.4,30.4,28.88,WNW,301,2.7,3.6,96,0.00,,---,0.00,VWS V14.00,2013-03-02 13:02:00,
2013-03-02 08:05:00,31.4,30.4,28.88,NW,317,2.7,4.0,96,0.00,,---,0.00,VWS V14.00,2013-03-02 13:05:00,
2013-03-02 08:07:00,31.4,30.4,28.88,WSW,252,0.0,2.7,96,0.00,,---,0.00,VWS V14.00,2013-03-02 13:07:00,
2013-03-02 08:10:00,31.4,30.4,28.88,WNW,292,0.0,4.0,96,0.00,,---,0.00,VWS V14.00,2013-03-02 13:10:00,
2013-03-02 08:12:00,31.4,30.4,28.88,WNW,297,0.0,2.2,96,0.00,,---,0.00,VWS V14.00,2013-03-02 13:12:00,
2013-03-02 08:16:00,31.6,30.6,28.88,NW,319,3.6,3.6,96,0.00,,---,0.00,VWS V14.00,2013-03-02 13:16:00,
2013-03-02 08:17:00,31.6,30.6,28.88,WNW,297,3.1,3.1,96,0.00,,---,0.00,VWS V14.00,2013-03-02 13:17:00,
2013-03-02 08:21:00,31.6,30.6,28.88,NW,316,0.0,0.0,96,0.00,,---,0.00,VWS V14.00,2013-03-02 13:21:00,
2013-03-02 08:22:00,31.6,30.6,28.88,WNW,292,3.1,3.1,96,0.00,,---,0.00,VWS V14.00,2013-03-02 13:22:00,
2013-03-02 08:26:00,31.6,30.6,28.88,NW,312,4.5,4.5,96,0.00,,---,0.00,VWS V14.00,2013-03-02 13:26:00,
2013-03-02 08:27:00,31.8,29.5,28.88,WNW,292,0.0,0.0,91,0.00,,---,0.00,VWS V14.00,2013-03-02 13:27:00,
2013-03-02 08:31:00,31.8,29.5,28.91,West,276,2.2,2.7,91,0.00,,---,0.00,VWS V14.00,2013-03-02 13:31:00,
2013-03-02 08:32:00,31.8,29.5,28.91,NW,319,3.6,3.6,91,0.00,,---,0.00,VWS V14.00,2013-03-02 13:32:00,
2013-03-02 08:33:00,31.8,29.5,28.91,NW,307,3.1,3.6,91,0.00,,---,0.00,VWS V14.00,2013-03-02 13:33:00,
2013-03-02 08:36:00,31.8,29.5,28.91,NW,307,0.0,3.1,91,0.00,,---,0.00,VWS V14.00,2013-03-02 13:36:00,
2013-03-02 08:37:00,31.8,29.5,28.91,West,273,0.0,0.0,91,0.00,,---,0.00,VWS V14.00,2013-03-02 13:37:00,
2013-03-02 08:38:00,31.8,29.5,28.91,West,274,0.0,0.0,91,0.00,,---,0.00,VWS V14.00,2013-03-02 13:38:00,
2013-03-02 08:41:00,32.0,29.6,28.91,NW,314,5.8,5.8,91,0.00,,---,0.00,VWS V14.00,2013-03-02 13:41:00,
2013-03-02 08:42:00,32.0,29.6,28.91,West,263,3.6,3.6,91,0.00,,---,0.00,VWS V14.00,2013-03-02 13:42:00,
2013-03-02 08:43:00,32.0,29.6,28.91,NW,308,2.7,3.6,91,0.00,,---,0.00,VWS V14.00,2013-03-02 13:43:00,
2013-03-02 08:46:00,32.0,29.6,28.91,WNW,288,0.0,4.9,91,0.00,,---,0.00,VWS V14.00,2013-03-02 13:46:00,
2013-03-02 08:47:00,32.0,29.6,28.91,NNW,332,3.1,3.1,91,0.00,,---,0.00,VWS V14.00,2013-03-02 13:47:00,
2013-03-02 08:48:00,32.0,29.6,28.91,NW,321,3.1,3.1,91,0.00,,---,0.00,VWS V14.00,2013-03-02 13:48:00,
2013-03-02 08:51:00,32.0,29.6,28.91,WNW,286,0.0,4.0,91,0.00,,---,0.00,VWS V14.00,2013-03-02 13:51:00,
2013-03-02 08:52:00,32.0,29.6,28.91,NW,309,0.0,3.1,91,0.00,,---,0.00,VWS V14.00,2013-03-02 13:52:00,
2013-03-02 08:53:00,32.0,29.6,28.91,West,275,4.9,5.8,91,0.00,,---,0.00,VWS V14.00,2013-03-02 13:53:00,
2013-03-02 08:56:00,32.1,29.8,28.91,WNW,286,3.1,3.6,91,0.00,,---,0.00,VWS V14.00,2013-03-02 13:56:00,
2013-03-02 08:57:00,32.1,29.8,28.91,WNW,288,4.0,4.0,91,0.00,,---,0.00,VWS V14.00,2013-03-02 13:57:00,
2013-03-02 08:58:00,32.1,29.8,28.91,NW,306,4.0,4.0,91,0.00,,---,0.00,VWS V14.00,2013-03-02 13:58:00,
2013-03-02 09:01:00,32.1,29.8,28.91,West,260,3.6,3.6,91,0.00,,---,0.00,VWS V14.00,2013-03-02 14:01:00,
2013-03-02 09:02:00,32.1,29.8,28.91,West,266,2.7,5.4,91,0.00,,---,0.00,VWS V14.00,2013-03-02 14:02:00,
2013-03-02 09:03:00,32.1,29.8,28.91,WNW,290,5.4,5.4,91,0.00,,---,0.00,VWS V14.00,2013-03-02 14:03:00,
2013-03-02 09:06:00,32.3,30.0,28.91,NW,304,3.6,5.4,91,0.00,,---,0.00,VWS V14.00,2013-03-02 14:06:00,
2013-03-02 09:07:00,32.3,30.0,28.91,NW,310,4.9,4.9,91,0.00,,---,0.00,VWS V14.00,2013-03-02 14:07:00,
2013-03-02 09:08:00,32.3,30.0,28.91,NW,311,4.0,4.9,91,0.00,,---,0.00,VWS V14.00,2013-03-02 14:08:00,
2013-03-02 09:11:00,32.5,30.2,28.91,WNW,298,2.7,2.7,91,0.00,,---,0.00,VWS V14.00,2013-03-02 14:11:00,
2013-03-02 09:12:00,32.5,30.2,28.91,NNW,331,3.1,3.1,91,0.00,,---,0.00,VWS V14.00,2013-03-02 14:12:00,
2013-03-02 09:13:00,32.5,30.2,28.91,NNW,331,0.0,0.0,91,0.00,,---,0.00,VWS V14.00,2013-03-02 14:13:00,
2013-03-02 09:16:00,32.7,30.4,28.91,NW,324,2.7,2.7,91,0.00,,---,0.00,VWS V14.00,2013-03-02 14:16:00,
2013-03-02 09:17:00,32.7,30.4,28.91,West,265,2.7,5.8,91,0.00,,---,0.00,VWS V14.00,2013-03-02 14:17:00,
2013-03-02 09:18:00,32.9,30.5,28.91,WNW,301,3.6,3.6,91,0.00,,---,0.00,VWS V14.00,2013-03-02 14:18:00,
2013-03-02 09:21:00,32.9,30.5,28.91,WNW,289,2.2,3.6,91,0.00,,---,0.00,VWS V14.00,2013-03-02 14:21:00,
2013-03-02 09:22:00,32.9,30.5,28.91,WNW,285,2.7,5.4,91,0.00,,---,0.00,VWS V14.00,2013-03-02 14:22:00,
2013-03-02 09:23:00,32.9,30.5,28.91,WNW,298,4.0,5.4,91,0.00,,---,0.00,VWS V14.00,2013-03-02 14:23:00,
2013-03-02 09:26:00,32.9,30.5,28.91,WNW,297,2.7,2.7,91,0.00,,---,0.00,VWS V14.00,2013-03-02 14:26:00,
2013-03-02 09:27:00,32.9,30.5,28.91,NW,325,3.1,3.6,91,0.00,,---,0.00,VWS V14.00,2013-03-02 14:27:00,
2013-03-02 09:28:00,32.9,30.5,28.91,NW,325,3.1,3.6,91,0.00,,---,0.00,VWS V14.00,2013-03-02 14:28:00,
2013-03-02 09:31:00,32.9,30.5,28.91,WNW,296,3.6,3.6,91,0.00,,---,0.00,VWS V14.00,2013-03-02 14:31:00,
2013-03-02 09:32:00,32.9,30.5,28.91,WNW,287,0.0,4.0,91,0.00,,---,0.00,VWS V14.00,2013-03-02 14:32:00,
2013-03-02 09:33:00,32.9,30.5,28.91,WNW,287,0.0,4.0,91,0.00,,---,0.00,VWS V14.00,2013-03-02 14:33:00,
2013-03-02 09:36:00,32.9,30.5,28.91,South,187,5.8,6.3,91,0.00,,---,0.00,VWS V14.00,2013-03-02 14:36:00,
2013-03-02 09:37:00,32.9,30.5,28.91,NNW,343,5.4,5.4,91,0.00,,---,0.00,VWS V14.00,2013-03-02 14:37:00,
2013-03-02 09:38:00,32.9,30.5,28.91,NNW,343,5.4,5.4,91,0.00,,---,0.00,VWS V14.00,2013-03-02 14:38:00,
2013-03-02 09:41:00,32.9,30.5,28.91,NW,306,3.1,3.1,91,0.00,,---,0.00,VWS V14.00,2013-03-02 14:41:00,
2013-03-02 09:42:00,33.0,30.7,28.91,WNW,289,0.0,3.6,91,0.00,,---,0.00,VWS V14.00,2013-03-02 14:42:00,
2013-03-02 09:43:00,33.0,30.7,28.91,WNW,289,2.2,3.6,91,0.00,,---,0.00,VWS V14.00,2013-03-02 14:43:00,
2013-03-02 09:46:00,33.0,30.7,28.91,NW,323,2.7,3.6,91,0.00,,---,0.00,VWS V14.00,2013-03-02 14:46:00,
2013-03-02 09:47:00,33.0,30.7,28.91,West,268,3.6,3.6,91,0.00,,---,0.00,VWS V14.00,2013-03-02 14:47:00,
2013-03-02 09:48:00,33.2,30.9,28.91,WNW,303,2.2,2.7,91,0.00,,---,0.00,VWS V14.00,2013-03-02 14:48:00,
2013-03-02 09:51:00,33.2,30.9,28.91,NNW,330,4.9,4.9,91,0.00,,---,0.00,VWS V14.00,2013-03-02 14:51:00,
2013-03-02 09:52:00,33.2,30.9,28.91,WNW,300,4.0,4.0,91,0.00,,---,0.00,VWS V14.00,2013-03-02 14:52:00,
2013-03-02 09:53:00,33.2,30.9,28.91,NW,319,4.0,4.0,91,0.00,,---,0.00,VWS V14.00,2013-03-02 14:53:00,
2013-03-02 09:56:00,33.2,28.0,28.91,NNW,338,3.6,3.6,81,0.00,,---,0.00,VWS V14.00,2013-03-02 14:56:00,
2013-03-02 09:57:00,33.2,28.0,28.91,NW,321,3.1,5.4,81,0.00,,---,0.00,VWS V14.00,2013-03-02 14:57:00,
2013-03-02 09:58:00,33.2,28.0,28.91,NW,320,2.7,2.7,81,0.00,,---,0.00,VWS V14.00,2013-03-02 14:58:00,
2013-03-02 10:01:00,33.2,28.0,28.91,WNW,301,4.0,4.0,81,0.00,,---,0.00,VWS V14.00,2013-03-02 15:01:00,
2013-03-02 10:02:00,33.2,28.0,28.91,WNW,302,0.0,4.9,81,0.00,,---,0.00,VWS V14.00,2013-03-02 15:02:00,
2013-03-02 10:03:00,33.2,28.0,28.91,NW,315,4.0,4.0,81,0.00,,---,0.00,VWS V14.00,2013-03-02 15:03:00,
2013-03-02 10:06:00,33.2,28.0,28.91,NNW,339,2.7,4.9,81,0.00,,---,0.00,VWS V14.00,2013-03-02 15:06:00,
2013-03-02 10:08:00,33.2,28.0,28.91,NW,309,2.7,2.7,81,0.00,,---,0.00,VWS V14.00,2013-03-02 15:08:00,
2013-03-02 10:11:00,33.2,28.0,28.91,NNW,328,3.1,3.1,81,0.00,,---,0.00,VWS V14.00,2013-03-02 15:11:00,
2013-03-02 10:13:00,33.4,28.2,28.91,WNW,296,0.0,2.7,81,0.00,,---,0.00,VWS V14.00,2013-03-02 15:13:00,
2013-03-02 10:16:00,33.4,28.2,28.91,NW,311,3.6,3.6,81,0.00,,---,0.00,VWS V14.00,2013-03-02 15:16:00,
2013-03-02 10:18:00,33.4,28.2,28.91,NW,304,3.6,5.4,81,0.00,,---,0.00,VWS V14.00,2013-03-02 15:18:00,
2013-03-02 10:21:00,33.4,28.2,28.91,East,83,4.0,4.0,81,0.00,,---,0.00,VWS V14.00,2013-03-02 15:21:00,
2013-03-02 10:23:00,33.4,28.2,28.91,NW,314,2.7,3.1,81,0.00,,---,0.00,VWS V14.00,2013-03-02 15:23:00,
2013-03-02 10:26:00,33.6,26.8,28.91,WNW,301,0.0,2.7,76,0.00,,---,0.00,VWS V14.00,2013-03-02 15:26:00,
2013-03-02 10:28:00,33.6,26.8,28.91,NW,318,0.0,3.1,76,0.00,,---,0.00,VWS V14.00,2013-03-02 15:28:00,
2013-03-02 10:31:00,33.6,26.8,28.91,WNW,296,6.3,6.3,76,0.00,,---,0.00,VWS V14.00,2013-03-02 15:31:00,
2013-03-02 10:33:00,33.6,26.8,28.91,WNW,285,4.5,5.8,76,0.00,,---,0.00,VWS V14.00,2013-03-02 15:33:00,
2013-03-02 10:36:00,33.8,27.0,28.91,NW,305,3.6,4.0,76,0.00,,---,0.00,VWS V14.00,2013-03-02 15:36:00,
2013-03-02 10:38:00,33.8,27.0,28.91,NW,313,6.3,6.3,76,0.00,,---,0.00,VWS V14.00,2013-03-02 15:38:00,
2013-03-02 10:39:00,33.8,27.0,28.91,WNW,292,6.3,6.3,76,0.00,,---,0.00,VWS V14.00,2013-03-02 15:39:00,
2013-03-02 10:41:00,33.8,27.0,28.91,WNW,301,5.4,5.4,76,0.00,,---,0.00,VWS V14.00,2013-03-02 15:41:00,
2013-03-02 10:43:00,33.9,27.2,28.91,WSW,246,5.4,6.3,76,0.00,,---,0.00,VWS V14.00,2013-03-02 15:43:00,
2013-03-02 10:44:00,34.1,27.4,28.91,NW,307,3.1,6.3,76,0.00,,---,0.00,VWS V14.00,2013-03-02 15:44:00,
2013-03-02 10:46:00,34.5,27.7,28.91,WNW,300,4.9,5.8,76,0.00,,---,0.00,VWS V14.00,2013-03-02 15:46:00,
2013-03-02 10:48:00,34.5,27.7,28.91,WSW,252,0.0,0.0,76,0.00,,---,0.00,VWS V14.00,2013-03-02 15:48:00,
2013-03-02 10:49:00,34.7,27.9,28.91,NW,317,5.4,5.4,76,0.00,,---,0.00,VWS V14.00,2013-03-02 15:49:00,
2013-03-02 10:52:00,34.8,28.1,28.91,WNW,297,4.0,4.0,76,0.00,,---,0.00,VWS V14.00,2013-03-02 15:52:00,
2013-03-02 10:53:00,35.0,28.2,28.91,West,267,3.1,3.1,76,0.00,,---,0.00,VWS V14.00,2013-03-02 15:53:00,
2013-03-02 10:54:00,35.0,28.2,28.91,WNW,297,4.0,4.0,76,0.00,,---,0.00,VWS V14.00,2013-03-02 15:54:00,
2013-03-02 10:57:00,35.2,28.4,28.91,NW,324,3.6,4.0,76,0.00,,---,0.00,VWS V14.00,2013-03-02 15:57:00,
2013-03-02 10:58:00,35.2,28.4,28.91,NNW,340,2.7,3.1,76,0.00,,---,0.00,VWS V14.00,2013-03-02 15:58:00,
2013-03-02 10:59:00,35.2,28.4,28.91,NW,314,2.7,3.1,76,0.00,,---,0.00,VWS V14.00,2013-03-02 15:59:00,
2013-03-02 11:02:00,35.2,28.4,28.91,WNW,295,3.1,4.0,76,0.00,,---,0.00,VWS V14.00,2013-03-02 16:02:00,
2013-03-02 11:03:00,35.0,28.2,28.91,West,280,2.7,3.1,76,0.00,,---,0.00,VWS V14.00,2013-03-02 16:03:00,
2013-03-02 11:04:00,35.0,28.2,28.91,WNW,292,4.9,4.9,76,0.00,,---,0.00,VWS V14.00,2013-03-02 16:04:00,
2013-03-02 11:07:00,35.0,28.2,28.91,NW,310,0.0,3.6,76,0.00,,---,0.00,VWS V14.00,2013-03-02 16:07:00,
2013-03-02 11:08:00,35.0,28.2,28.91,NNE,25,3.1,3.6,76,0.00,,---,0.00,VWS V14.00,2013-03-02 16:08:00,
2013-03-02 11:09:00,35.0,28.2,28.91,NW,306,3.6,5.8,76,0.00,,---,0.00,VWS V14.00,2013-03-02 16:09:00,
2013-03-02 11:12:00,34.8,28.1,28.91,NW,312,4.0,5.4,76,0.00,,---,0.00,VWS V14.00,2013-03-02 16:12:00,
2013-03-02 11:13:00,34.8,28.1,28.91,WNW,298,4.9,4.9,76,0.00,,---,0.00,VWS V14.00,2013-03-02 16:13:00,
2013-03-02 11:14:00,34.8,28.1,28.91,WSW,253,5.8,5.8,76,0.00,,---,0.00,VWS V14.00,2013-03-02 16:14:00,
2013-03-02 11:17:00,34.7,27.9,28.91,NW,315,4.0,4.0,76,0.00,,---,0.00,VWS V14.00,2013-03-02 16:17:00,
2013-03-02 11:18:00,34.7,27.9,28.91,NNW,337,3.6,3.6,76,0.00,,---,0.00,VWS V14.00,2013-03-02 16:18:00,
2013-03-02 11:19:00,34.7,27.9,28.91,NW,318,3.6,3.6,76,0.00,,---,0.00,VWS V14.00,2013-03-02 16:19:00,
2013-03-02 11:22:00,34.5,27.7,28.91,NW,305,4.9,4.9,76,0.00,,---,0.00,VWS V14.00,2013-03-02 16:22:00,
2013-03-02 11:23:00,34.5,27.7,28.91,West,280,7.6,7.6,76,0.00,,---,0.00,VWS V14.00,2013-03-02 16:23:00,
2013-03-02 11:24:00,34.5,27.7,28.91,NW,316,5.4,7.6,76,0.00,,---,0.00,VWS V14.00,2013-03-02 16:24:00,
2013-03-02 11:27:00,34.5,27.7,28.91,North,353,4.0,4.5,76,0.00,,---,0.00,VWS V14.00,2013-03-02 16:27:00,
2013-03-02 11:28:00,34.5,27.7,28.91,NNW,334,2.7,2.7,76,0.00,,---,0.00,VWS V14.00,2013-03-02 16:28:00,
2013-03-02 11:29:00,34.5,27.7,28.88,NW,308,6.3,6.3,76,0.00,,---,0.00,VWS V14.00,2013-03-02 16:29:00,
2013-03-02 11:32:00,34.5,27.7,28.88,NNW,339,3.6,3.6,76,0.00,,---,0.00,VWS V14.00,2013-03-02 16:32:00,
2013-03-02 11:33:00,34.5,27.7,28.88,WNW,284,4.9,5.4,76,0.00,,---,0.00,VWS V14.00,2013-03-02 16:33:00,
2013-03-02 11:34:00,34.5,27.7,28.88,WNW,284,0.0,5.4,76,0.00,,---,0.00,VWS V14.00,2013-03-02 16:34:00,
2013-03-02 11:37:00,34.5,27.7,28.88,NW,313,4.0,4.0,76,0.00,,---,0.00,VWS V14.00,2013-03-02 16:37:00,
2013-03-02 11:38:00,34.5,27.7,28.88,NW,319,2.2,3.6,76,0.00,,---,0.00,VWS V14.00,2013-03-02 16:38:00,
2013-03-02 11:39:00,34.5,27.7,28.88,NNW,341,3.1,4.9,76,0.00,,---,0.00,VWS V14.00,2013-03-02 16:39:00,
2013-03-02 11:42:00,34.5,27.7,28.88,WNW,286,4.5,4.5,76,0.00,,---,0.00,VWS V14.00,2013-03-02 16:42:00,
2013-03-02 11:43:00,34.5,27.7,28.88,NW,315,0.0,4.5,76,0.00,,---,0.00,VWS V14.00,2013-03-02 16:43:00,
2013-03-02 11:44:00,34.5,27.7,28.88,WNW,299,2.2,4.0,76,0.00,,---,0.00,VWS V14.00,2013-03-02 16:44:00,
2013-03-02 11:47:00,34.5,27.7,28.88,NNW,344,2.7,6.3,76,0.00,,---,0.00,VWS V14.00,2013-03-02 16:47:00,
2013-03-02 11:48:00,34.5,27.7,28.88,NW,313,0.0,3.1,76,0.00,,---,0.00,VWS V14.00,2013-03-02 16:48:00,
2013-03-02 11:49:00,34.3,27.5,28.88,WNW,295,3.6,3.6,76,0.00,,---,0.00,VWS V14.00,2013-03-02 16:49:00,
2013-03-02 11:52:00,34.3,27.5,28.88,West,280,0.0,0.0,76,0.00,,---,0.00,VWS V14.00,2013-03-02 16:52:00,
2013-03-02 11:53:00,34.3,27.5,28.88,WNW,287,3.1,3.1,76,0.00,,---,0.00,VWS V14.00,2013-03-02 16:53:00,
2013-03-02 11:54:00,34.3,27.5,28.88,NNW,329,2.7,3.1,76,0.00,,---,0.00,VWS V14.00,2013-03-02 16:54:00,
2013-03-02 11:57:00,34.3,27.5,28.88,WNW,299,4.5,4.5,76,0.00,,---,0.00,VWS V14.00,2013-03-02 16:57:00,
2013-03-02 11:58:00,34.3,27.5,28.88,NW,313,3.6,3.6,76,0.00,,---,0.00,VWS V14.00,2013-03-02 16:58:00,
2013-03-02 11:59:00,34.3,27.5,28.88,WNW,293,4.9,4.9,76,0.00,,---,0.00,VWS V14.00,2013-03-02 16:59:00,
2013-03-02 12:03:00,34.1,27.4,28.88,WNW,302,4.5,5.8,76,0.00,,---,0.00,VWS V14.00,2013-03-02 17:03:00,
2013-03-02 12:04:00,34.1,27.4,28.88,NW,324,2.7,4.5,76,0.00,,---,0.00,VWS V14.00,2013-03-02 17:04:00,
2013-03-02 12:08:00,34.1,27.4,28.88,NNW,337,4.0,4.0,76,0.00,,---,0.00,VWS V14.00,2013-03-02 17:08:00,
2013-03-02 12:09:00,34.1,27.4,28.88,WNW,303,3.6,5.4,76,0.00,,---,0.00,VWS V14.00,2013-03-02 17:09:00,
2013-03-02 12:13:00,34.1,27.4,28.88,NNW,334,3.6,3.6,76,0.00,,---,0.00,VWS V14.00,2013-03-02 17:13:00,
2013-03-02 12:14:00,34.1,27.4,28.88,NW,322,2.2,2.7,76,0.00,,---,0.00,VWS V14.00,2013-03-02 17:14:00,
2013-03-02 12:15:00,34.1,27.4,28.88,NW,321,2.7,2.7,76,0.00,,---,0.00,VWS V14.00,2013-03-02 17:15:00,
2013-03-02 12:18:00,34.1,27.4,28.88,North,353,3.6,3.6,76,0.00,,---,0.00,VWS V14.00,2013-03-02 17:18:00,
2013-03-02 12:19:00,34.1,27.4,28.88,North,353,2.2,4.0,76,0.00,,---,0.00,VWS V14.00,2013-03-02 17:19:00,
2013-03-02 12:20:00,34.1,27.4,28.88,NW,305,2.7,3.6,76,0.00,,---,0.00,VWS V14.00,2013-03-02 17:20:00,
2013-03-02 12:23:00,34.3,27.5,28.88,WNW,292,3.1,4.0,76,0.00,,---,0.00,VWS V14.00,2013-03-02 17:23:00,
2013-03-02 12:24:00,34.3,27.5,28.88,NW,322,2.7,4.0,76,0.00,,---,0.00,VWS V14.00,2013-03-02 17:24:00,
2013-03-02 12:25:00,34.5,27.7,28.88,NW,319,2.7,3.6,76,0.00,,---,0.00,VWS V14.00,2013-03-02 17:25:00,
2013-03-02 12:28:00,34.7,27.9,28.88,West,274,3.1,3.1,76,0.00,,---,0.00,VWS V14.00,2013-03-02 17:28:00,
2013-03-02 12:29:00,34.7,27.9,28.88,West,271,5.4,5.4,76,0.00,,---,0.00,VWS V14.00,2013-03-02 17:29:00,
2013-03-02 12:30:00,34.8,28.1,28.88,NW,322,3.1,4.0,76,0.00,,---,0.00,VWS V14.00,2013-03-02 17:30:00,
2013-03-02 12:33:00,35.0,28.2,28.88,NW,313,4.5,4.5,76,0.00,,---,0.00,VWS V14.00,2013-03-02 17:33:00,
2013-03-02 12:34:00,35.0,28.2,28.88,WNW,302,5.4,5.4,76,0.00,,---,0.00,VWS V14.00,2013-03-02 17:34:00,
2013-03-02 12:35:00,35.0,28.2,28.88,NW,305,3.6,6.3,76,0.00,,---,0.00,VWS V14.00,2013-03-02 17:35:00,
2013-03-02 12:38:00,35.0,28.2,28.88,NW,308,4.0,4.0,76,0.00,,---,0.00,VWS V14.00,2013-03-02 17:38:00,
2013-03-02 12:39:00,35.0,28.2,28.88,NW,316,3.6,4.0,76,0.00,,---,0.00,VWS V14.00,2013-03-02 17:39:00,
2013-03-02 12:40:00,35.0,28.2,28.88,NW,319,0.0,3.6,76,0.00,,---,0.00,VWS V14.00,2013-03-02 17:40:00,
2013-03-02 12:43:00,35.2,28.4,28.88,NW,313,4.0,4.0,76,0.00,,---,0.00,VWS V14.00,2013-03-02 17:43:00,
2013-03-02 12:44:00,35.2,28.4,28.88,NW,307,3.1,3.1,76,0.00,,---,0.00,VWS V14.00,2013-03-02 17:44:00,
2013-03-02 12:45:00,35.2,28.4,28.88,NNW,328,2.7,3.1,76,0.00,,---,0.00,VWS V14.00,2013-03-02 17:45:00,
2013-03-02 12:48:00,35.2,28.4,28.88,NNE,17,2.2,4.9,76,0.00,,---,0.00,VWS V14.00,2013-03-02 17:48:00,
2013-03-02 12:49:00,35.2,28.4,28.88,WNW,292,3.6,4.9,76,0.00,,---,0.00,VWS V14.00,2013-03-02 17:49:00,
2013-03-02 12:50:00,35.2,28.4,28.88,West,272,2.7,3.1,76,0.00,,---,0.00,VWS V14.00,2013-03-02 17:50:00,
2013-03-02 12:53:00,35.2,28.4,28.88,NW,312,3.1,4.5,76,0.00,,---,0.00,VWS V14.00,2013-03-02 17:53:00,
2013-03-02 12:54:00,35.2,28.4,28.88,NW,321,2.7,3.1,76,0.00,,---,0.00,VWS V14.00,2013-03-02 17:54:00,
2013-03-02 12:55:00,35.4,28.6,28.88,NNW,342,3.1,3.1,76,0.00,,---,0.00,VWS V14.00,2013-03-02 17:55:00,
2013-03-02 12:58:00,35.4,28.6,28.88,NW,317,2.7,2.7,76,0.00,,---,0.00,VWS V14.00,2013-03-02 17:58:00,
2013-03-02 12:59:00,35.4,28.6,28.88,WNW,298,3.1,3.1,76,0.00,,---,0.00,VWS V14.00,2013-03-02 17:59:00,
2013-03-02 13:00:00,35.4,28.6,28.88,NW,319,0.0,4.0,76,0.00,,---,0.00,VWS V14.00,2013-03-02 18:00:00,
2013-03-02 13:03:00,35.6,28.8,28.88,WNW,303,3.6,3.6,76,0.00,,---,0.00,VWS V14.00,2013-03-02 18:03:00,
2013-03-02 13:04:00,35.6,28.8,28.88,NW,305,0.0,0.0,76,0.00,,---,0.00,VWS V14.00,2013-03-02 18:04:00,
2013-03-02 13:05:00,35.6,28.8,28.88,NW,305,0.0,0.0,76,0.00,,---,0.00,VWS V14.00,2013-03-02 18:05:00,
2013-03-02 13:08:00,35.7,28.9,28.88,West,268,3.1,3.1,76,0.00,,---,0.00,VWS V14.00,2013-03-02 18:08:00,
2013-03-02 13:09:00,35.7,28.9,28.88,West,279,3.6,4.0,76,0.00,,---,0.00,VWS V14.00,2013-03-02 18:09:00,
2013-03-02 13:10:00,35.7,28.9,28.88,West,279,3.1,4.0,76,0.00,,---,0.00,VWS V14.00,2013-03-02 18:10:00,
2013-03-02 13:13:00,35.6,28.8,28.88,WNW,298,3.1,3.1,76,0.00,,---,0.00,VWS V14.00,2013-03-02 18:13:00,
2013-03-02 13:14:00,35.6,28.8,28.88,NNW,344,2.7,3.1,76,0.00,,---,0.00,VWS V14.00,2013-03-02 18:14:00,
2013-03-02 13:15:00,35.4,28.6,28.88,NW,306,4.0,4.0,76,0.00,,---,0.00,VWS V14.00,2013-03-02 18:15:00,
2013-03-02 13:18:00,35.4,28.6,28.88,NW,308,3.6,3.6,76,0.00,,---,0.00,VWS V14.00,2013-03-02 18:18:00,
2013-03-02 13:19:00,35.2,28.4,28.88,NNW,330,6.3,6.3,76,0.00,,---,0.00,VWS V14.00,2013-03-02 18:19:00,
2013-03-02 13:20:00,35.2,28.4,28.88,NW,308,3.6,6.3,76,0.00,,---,0.00,VWS V14.00,2013-03-02 18:20:00,
2013-03-02 13:23:00,35.2,28.4,28.88,West,259,3.1,3.1,76,0.00,,---,0.00,VWS V14.00,2013-03-02 18:23:00,
2013-03-02 13:24:00,35.2,28.4,28.88,NW,306,0.0,0.0,76,0.00,,---,0.00,VWS V14.00,2013-03-02 18:24:00,
2013-03-02 13:25:00,35.2,28.4,28.88,NW,308,3.1,3.6,76,0.00,,---,0.00,VWS V14.00,2013-03-02 18:25:00,
2013-03-02 13:28:00,35.2,28.4,28.88,West,269,0.0,0.0,76,0.00,,---,0.00,VWS V14.00,2013-03-02 18:28:00,
2013-03-02 13:29:00,35.2,28.4,28.88,West,269,0.0,0.0,76,0.00,,---,0.00,VWS V14.00,2013-03-02 18:29:00,
2013-03-02 13:30:00,35.2,28.4,28.88,West,269,0.0,0.0,76,0.00,,---,0.00,VWS V14.00,2013-03-02 18:30:00,
2013-03-02 13:33:00,35.4,28.6,28.88,WSW,253,2.7,5.8,76,0.00,,---,0.00,VWS V14.00,2013-03-02 18:33:00,
2013-03-02 13:34:00,35.4,28.6,28.88,NNW,332,0.0,0.0,76,0.00,,---,0.00,VWS V14.00,2013-03-02 18:34:00,
2013-03-02 13:35:00,35.4,28.6,28.88,NW,319,2.2,2.2,76,0.00,,---,0.00,VWS V14.00,2013-03-02 18:35:00,
2013-03-02 13:38:00,35.6,28.8,28.88,NNW,333,5.4,5.4,76,0.00,,---,0.00,VWS V14.00,2013-03-02 18:38:00,
2013-03-02 13:39:00,35.6,28.8,28.88,WNW,300,5.4,7.6,76,0.00,,---,0.00,VWS V14.00,2013-03-02 18:39:00,
2013-03-02 13:40:00,35.6,28.8,28.88,NW,320,3.1,5.8,76,0.00,,---,0.00,VWS V14.00,2013-03-02 18:40:00,
2013-03-02 13:43:00,35.4,28.6,28.88,NW,305,3.6,4.9,76,0.00,,---,0.00,VWS V14.00,2013-03-02 18:43:00,
2013-03-02 13:44:00,35.4,28.6,28.88,NNW,345,2.2,5.4,76,0.00,,---,0.00,VWS V14.00,2013-03-02 18:44:00,
2013-03-02 13:45:00,35.4,28.6,28.88,WNW,299,4.9,5.4,76,0.00,,---,0.00,VWS V14.00,2013-03-02 18:45:00,
2013-03-02 13:48:00,35.4,28.6,28.88,West,278,2.7,3.6,76,0.00,,---,0.00,VWS V14.00,2013-03-02 18:48:00,
2013-03-02 13:49:00,35.4,28.6,28.88,NW,326,3.6,5.4,76,0.00,,---,0.00,VWS V14.00,2013-03-02 18:49:00,
2013-03-02 13:50:00,35.4,28.6,28.88,NW,306,5.4,5.4,76,0.00,,---,0.00,VWS V14.00,2013-03-02 18:50:00,
2013-03-02 13:53:00,35.6,28.8,28.88,NW,325,7.2,7.6,76,0.00,,---,0.00,VWS V14.00,2013-03-02 18:53:00,
2013-03-02 13:54:00,35.6,28.8,28.88,West,264,0.0,5.8,76,0.00,,---,0.00,VWS V14.00,2013-03-02 18:54:00,
2013-03-02 13:55:00,35.7,28.9,28.88,WNW,292,4.9,4.9,76,0.00,,---,0.00,VWS V14.00,2013-03-02 18:55:00,
2013-03-02 13:58:00,35.9,29.1,28.88,NNW,331,4.9,5.4,76,0.00,,---,0.00,VWS V14.00,2013-03-02 18:58:00,
2013-03-02 13:59:00,35.9,29.1,28.88,NNW,329,3.1,7.2,76,0.00,,---,0.00,VWS V14.00,2013-03-02 18:59:00,
2013-03-02 14:00:00,35.9,29.1,28.88,NW,317,5.8,8.7,76,0.00,,---,0.00,VWS V14.00,2013-03-02 19:00:00,
2013-03-02 14:03:00,35.9,29.1,28.88,NNW,330,2.7,5.8,76,0.00,,---,0.00,VWS V14.00,2013-03-02 19:03:00,
2013-03-02 14:04:00,35.9,29.1,28.88,WNW,300,0.0,6.3,76,0.00,,---,0.00,VWS V14.00,2013-03-02 19:04:00,
2013-03-02 14:05:00,35.9,29.1,28.88,WNW,295,2.7,4.9,76,0.00,,---,0.00,VWS V14.00,2013-03-02 19:05:00,
2013-03-02 14:08:00,35.9,29.1,28.88,NW,316,4.0,4.0,76,0.00,,---,0.00,VWS V14.00,2013-03-02 19:08:00,
2013-03-02 14:09:00,35.9,29.1,28.88,WSW,251,5.8,6.7,76,0.00,,---,0.00,VWS V14.00,2013-03-02 19:09:00,
2013-03-02 14:10:00,35.9,29.1,28.88,NW,309,7.6,8.1,76,0.00,,---,0.00,VWS V14.00,2013-03-02 19:10:00,
2013-03-02 14:13:00,35.9,29.1,28.88,NNW,328,6.3,7.2,76,0.00,,---,0.00,VWS V14.00,2013-03-02 19:13:00,
2013-03-02 14:14:00,35.9,29.1,28.88,NW,309,4.0,5.4,76,0.00,,---,0.00,VWS V14.00,2013-03-02 19:14:00,
2013-03-02 14:15:00,35.7,28.9,28.88,West,277,2.7,5.4,76,0.00,,---,0.00,VWS V14.00,2013-03-02 19:15:00,
2013-03-02 14:18:00,35.7,28.9,28.88,NW,312,2.7,3.6,76,0.00,,---,0.00,VWS V14.00,2013-03-02 19:18:00,
2013-03-02 14:19:00,35.7,28.9,28.88,NW,316,3.1,3.1,76,0.00,,---,0.00,VWS V14.00,2013-03-02 19:19:00,
2013-03-02 14:20:00,35.7,28.9,28.88,West,265,4.0,5.4,76,0.00,,---,0.00,VWS V14.00,2013-03-02 19:20:00,
2013-03-02 14:23:00,35.9,29.1,28.88,WNW,301,3.6,5.4,76,0.00,,---,0.00,VWS V14.00,2013-03-02 19:23:00,
2013-03-02 14:24:00,36.1,29.3,28.88,NW,315,4.0,5.4,76,0.00,,---,0.00,VWS V14.00,2013-03-02 19:24:00,
2013-03-02 14:25:00,36.1,29.3,28.88,WNW,301,4.0,4.0,76,0.00,,---,0.00,VWS V14.00,2013-03-02 19:25:00,
2013-03-02 14:26:00,36.1,29.3,28.88,North,357,0.0,4.0,76,0.00,,---,0.00,VWS V14.00,2013-03-02 19:26:00,
2013-03-02 14:29:00,36.1,29.3,28.88,West,279,0.0,3.1,76,0.00,,---,0.00,VWS V14.00,2013-03-02 19:29:00,
2013-03-02 14:31:00,36.1,29.3,28.88,NW,321,3.6,5.8,76,0.00,,---,0.00,VWS V14.00,2013-03-02 19:31:00,
2013-03-02 14:34:00,35.9,29.1,28.88,NW,304,3.1,4.0,76,0.00,,---,0.00,VWS V14.00,2013-03-02 19:34:00,
2013-03-02 14:35:00,35.9,29.1,28.88,NW,325,0.0,3.6,76,0.00,,---,0.00,VWS V14.00,2013-03-02 19:35:00,
2013-03-02 14:36:00,35.9,29.1,28.88,NW,320,3.6,4.0,76,0.00,,---,0.00,VWS V14.00,2013-03-02 19:36:00,
2013-03-02 14:39:00,35.9,29.1,28.88,WSW,256,2.2,5.8,76,0.00,,---,0.00,VWS V14.00,2013-03-02 19:39:00,
2013-03-02 14:40:00,35.9,29.1,28.88,WNW,294,4.0,4.0,76,0.00,,---,0.00,VWS V14.00,2013-03-02 19:40:00,
2013-03-02 14:41:00,35.9,29.1,28.88,NNW,338,2.7,4.9,76,0.00,,---,0.00,VWS V14.00,2013-03-02 19:41:00,
2013-03-02 14:44:00,35.7,28.9,28.88,NW,322,3.6,3.6,76,0.00,,---,0.00,VWS V14.00,2013-03-02 19:44:00,
2013-03-02 14:45:00,35.7,28.9,28.88,West,280,2.2,3.6,76,0.00,,---,0.00,VWS V14.00,2013-03-02 19:45:00,
2013-03-02 14:46:00,35.7,28.9,28.88,WNW,289,0.0,4.0,76,0.00,,---,0.00,VWS V14.00,2013-03-02 19:46:00,
2013-03-02 14:49:00,35.6,28.8,28.88,NW,311,3.1,3.6,76,0.00,,---,0.00,VWS V14.00,2013-03-02 19:49:00,
2013-03-02 14:50:00,35.6,28.8,28.88,NW,316,2.7,4.0,76,0.00,,---,0.00,VWS V14.00,2013-03-02 19:50:00,
2013-03-02 14:51:00,35.4,28.6,28.88,WNW,302,3.6,4.9,76,0.00,,---,0.00,VWS V14.00,2013-03-02 19:51:00,
2013-03-02 14:54:00,35.4,28.6,28.88,WNW,294,5.4,5.4,76,0.00,,---,0.00,VWS V14.00,2013-03-02 19:54:00,
2013-03-02 14:55:00,35.4,28.6,28.88,West,265,3.6,5.4,76,0.00,,---,0.00,VWS V14.00,2013-03-02 19:55:00,
2013-03-02 14:56:00,35.2,28.4,28.88,NW,319,3.1,3.1,76,0.00,,---,0.00,VWS V14.00,2013-03-02 19:56:00,
2013-03-02 14:57:00,35.2,28.4,28.88,West,275,3.1,3.1,76,0.00,,---,0.00,VWS V14.00,2013-03-02 19:57:00,
2013-03-02 14:59:00,35.2,28.4,28.88,West,260,2.7,3.1,76,0.00,,---,0.00,VWS V14.00,2013-03-02 19:59:00,
2013-03-02 15:00:00,35.2,28.4,28.88,WNW,300,4.0,4.0,76,0.00,,---,0.00,VWS V14.00,2013-03-02 20:00:00,
2013-03-02 15:01:00,35.2,28.4,28.88,WNW,294,3.6,4.0,76,0.00,,---,0.00,VWS V14.00,2013-03-02 20:01:00,
2013-03-02 15:02:00,35.2,28.4,28.88,West,262,2.2,3.6,76,0.00,,---,0.00,VWS V14.00,2013-03-02 20:02:00,
2013-03-02 15:04:00,35.4,28.6,28.88,NW,308,3.1,3.1,76,0.00,,---,0.00,VWS V14.00,2013-03-02 20:04:00,
2013-03-02 15:05:00,35.4,28.6,28.88,NNW,335,4.0,4.0,76,0.00,,---,0.00,VWS V14.00,2013-03-02 20:05:00,
2013-03-02 15:06:00,35.4,28.6,28.88,NW,305,5.8,5.8,76,0.00,,---,0.00,VWS V14.00,2013-03-02 20:06:00,
2013-03-02 15:07:00,35.4,28.6,28.88,WNW,293,3.6,3.6,76,0.00,,---,0.00,VWS V14.00,2013-03-02 20:07:00,
2013-03-02 15:09:00,35.4,28.6,28.88,West,280,2.2,3.6,76,0.00,,---,0.00,VWS V14.00,2013-03-02 20:09:00,
2013-03-02 15:10:00,35.4,28.6,28.88,WNW,302,3.1,4.5,76,0.00,,---,0.00,VWS V14.00,2013-03-02 20:10:00,
2013-03-02 15:11:00,35.4,28.6,28.88,WNW,302,0.0,4.5,76,0.00,,---,0.00,VWS V14.00,2013-03-02 20:11:00,
2013-03-02 15:12:00,35.6,28.8,28.88,WNW,290,4.0,4.0,76,0.00,,---,0.00,VWS V14.00,2013-03-02 20:12:00,
2013-03-02 15:14:00,35.6,28.8,28.88,NNW,327,2.2,2.2,76,0.00,,---,0.00,VWS V14.00,2013-03-02 20:14:00,
2013-03-02 15:15:00,35.6,28.8,28.88,NNW,327,3.1,3.6,76,0.00,,---,0.00,VWS V14.00,2013-03-02 20:15:00,
2013-03-02 15:16:00,35.4,28.6,28.88,NNW,327,0.0,3.6,76,0.00,,---,0.00,VWS V14.00,2013-03-02 20:16:00,
2013-03-02 15:17:00,35.4,28.6,28.88,WNW,301,6.3,6.3,76,0.00,,---,0.00,VWS V14.00,2013-03-02 20:17:00,
2013-03-02 15:19:00,35.4,28.6,28.88,NW,306,3.1,3.6,76,0.00,,---,0.00,VWS V14.00,2013-03-02 20:19:00,
2013-03-02 15:20:00,35.4,28.6,28.88,WNW,301,2.7,4.0,76,0.00,,---,0.00,VWS V14.00,2013-03-02 20:20:00,
2013-03-02 15:21:00,35.4,28.6,28.88,NW,320,3.1,4.0,76,0.00,,---,0.00,VWS V14.00,2013-03-02 20:21:00,
2013-03-02 15:22:00,35.4,28.6,28.88,NNW,343,0.0,4.0,76,0.00,,---,0.00,VWS V14.00,2013-03-02 20:22:00,
2013-03-02 15:24:00,35.4,28.6,28.88,NW,317,0.0,4.0,76,0.00,,---,0.00,VWS V14.00,2013-03-02 20:24:00,
2013-03-02 15:25:00,35.4,28.6,28.88,NW,319,0.0,0.0,76,0.00,,---,0.00,VWS V14.00,2013-03-02 20:25:00,
2013-03-02 15:26:00,35.4,28.6,28.88,NW,322,0.0,0.0,76,0.00,,---,0.00,VWS V14.00,2013-03-02 20:26:00,
2013-03-02 15:27:00,35.4,28.6,28.88,NNW,337,0.0,5.4,76,0.00,,---,0.00,VWS V14.00,2013-03-02 20:27:00,
2013-03-02 15:29:00,35.4,28.6,28.88,NW,313,2.7,2.7,76,0.00,,---,0.00,VWS V14.00,2013-03-02 20:29:00,
2013-03-02 15:30:00,35.4,28.6,28.88,NW,312,2.2,4.0,76,0.00,,---,0.00,VWS V14.00,2013-03-02 20:30:00,
2013-03-02 15:31:00,35.4,28.6,28.88,NW,313,0.0,0.0,76,0.00,,---,0.00,VWS V14.00,2013-03-02 20:31:00,
2013-03-02 15:32:00,35.4,28.6,28.88,NNW,332,3.6,5.4,76,0.00,,---,0.00,VWS V14.00,2013-03-02 20:32:00,
2013-03-02 15:34:00,35.4,28.6,28.88,NW,324,2.7,5.8,76,0.00,,---,0.00,VWS V14.00,2013-03-02 20:34:00,
2013-03-02 15:35:00,35.4,28.6,28.88,NW,312,3.6,4.0,76,0.00,,---,0.00,VWS V14.00,2013-03-02 20:35:00,
2013-03-02 15:36:00,35.4,28.6,28.88,WNW,295,3.6,4.0,76,0.00,,---,0.00,VWS V14.00,2013-03-02 20:36:00,
2013-03-02 15:37:00,35.2,28.4,28.88,NW,308,3.6,4.5,76,0.00,,---,0.00,VWS V14.00,2013-03-02 20:37:00,
2013-03-02 15:39:00,35.2,28.4,28.88,NW,306,3.1,4.0,76,0.00,,---,0.00,VWS V14.00,2013-03-02 20:39:00,
2013-03-02 15:41:00,35.2,28.4,28.88,NW,320,4.0,4.9,76,0.00,,---,0.00,VWS V14.00,2013-03-02 20:41:00,
2013-03-02 15:42:00,35.2,28.4,28.88,West,280,3.1,6.3,76,0.00,,---,0.00,VWS V14.00,2013-03-02 20:42:00,
2013-03-02 15:45:00,35.2,28.4,28.88,NNW,336,4.9,4.9,76,0.00,,---,0.00,VWS V14.00,2013-03-02 20:45:00,
2013-03-02 15:46:00,35.0,28.2,28.88,NW,316,5.4,5.4,76,0.00,,---,0.00,VWS V14.00,2013-03-02 20:46:00,
2013-03-02 15:47:00,34.8,28.1,28.88,WNW,300,3.6,3.6,76,0.00,,---,0.00,VWS V14.00,2013-03-02 20:47:00,
2013-03-02 15:50:00,34.7,27.9,28.88,NW,321,2.7,4.0,76,0.00,,---,0.00,VWS V14.00,2013-03-02 20:50:00,
2013-03-02 15:51:00,34.5,27.7,28.88,NNW,339,2.7,2.7,76,0.00,,---,0.00,VWS V14.00,2013-03-02 20:51:00,
2013-03-02 15:53:00,34.5,27.7,28.88,NW,307,3.6,4.0,76,0.00,,---,0.00,VWS V14.00,2013-03-02 20:53:00,
2013-03-02 15:55:00,34.3,27.5,28.88,WNW,301,2.7,2.7,76,0.00,,---,0.00,VWS V14.00,2013-03-02 20:55:00,
2013-03-02 15:56:00,34.1,27.4,28.88,NW,315,3.6,3.6,76,0.00,,---,0.00,VWS V14.00,2013-03-02 20:56:00,
2013-03-02 15:58:00,34.1,27.4,28.88,WNW,291,3.6,3.6,76,0.00,,---,0.00,VWS V14.00,2013-03-02 20:58:00,
2013-03-02 16:00:00,34.1,27.4,28.88,NW,307,0.0,0.0,76,0.00,,---,0.00,VWS V14.00,2013-03-02 21:00:00,
2013-03-02 16:01:00,34.1,27.4,28.88,NW,306,0.0,0.0,76,0.00,,---,0.00,VWS V14.00,2013-03-02 21:01:00,
2013-03-02 16:03:00,34.1,27.4,28.88,NW,306,0.0,0.0,76,0.00,,---,0.00,VWS V14.00,2013-03-02 21:03:00,
2013-03-02 16:05:00,34.3,27.5,28.88,WNW,289,0.0,2.7,76,0.00,,---,0.00,VWS V14.00,2013-03-02 21:05:00,
2013-03-02 16:06:00,34.3,27.5,28.88,WNW,291,2.7,2.7,76,0.00,,---,0.00,VWS V14.00,2013-03-02 21:06:00,
2013-03-02 16:08:00,34.5,27.7,28.88,NW,312,3.6,3.6,76,0.00,,---,0.00,VWS V14.00,2013-03-02 21:08:00,
2013-03-02 16:10:00,34.5,27.7,28.88,NW,304,6.3,6.3,76,0.00,,---,0.00,VWS V14.00,2013-03-02 21:10:00,
2013-03-02 16:11:00,34.5,27.7,28.88,WNW,303,3.6,6.3,76,0.00,,---,0.00,VWS V14.00,2013-03-02 21:11:00,
2013-03-02 16:13:00,34.7,27.9,28.88,NW,311,0.0,0.0,76,0.00,,---,0.00,VWS V14.00,2013-03-02 21:13:00,
2013-03-02 16:15:00,34.8,28.1,28.88,WNW,298,3.6,3.6,76,0.00,,---,0.00,VWS V14.00,2013-03-02 21:15:00,
2013-03-02 16:16:00,34.8,28.1,28.88,NW,308,2.7,2.7,76,0.00,,---,0.00,VWS V14.00,2013-03-02 21:16:00,
2013-03-02 16:18:00,35.0,28.2,28.88,West,261,3.1,4.0,76,0.00,,---,0.00,VWS V14.00,2013-03-02 21:18:00,
2013-03-02 16:20:00,35.0,28.2,28.88,NW,316,5.4,5.4,76,0.00,,---,0.00,VWS V14.00,2013-03-02 21:20:00,
2013-03-02 16:21:00,35.2,28.4,28.88,West,278,3.6,4.0,76,0.00,,---,0.00,VWS V14.00,2013-03-02 21:21:00,
2013-03-02 16:23:00,35.2,28.4,28.88,WNW,287,5.4,5.4,76,0.00,,---,0.00,VWS V14.00,2013-03-02 21:23:00,
2013-03-02 16:25:00,35.2,28.4,28.88,West,275,4.0,5.4,76,0.00,,---,0.00,VWS V14.00,2013-03-02 21:25:00,
2013-03-02 16:26:00,35.2,28.4,28.88,NW,306,5.8,5.8,76,0.00,,---,0.00,VWS V14.00,2013-03-02 21:26:00,
2013-03-02 16:28:00,35.2,28.4,28.88,WNW,288,0.0,2.7,76,0.00,,---,0.00,VWS V14.00,2013-03-02 21:28:00,
2013-03-02 16:30:00,35.0,28.2,28.88,WNW,299,3.6,4.0,76,0.00,,---,0.00,VWS V14.00,2013-03-02 21:30:00,
2013-03-02 16:31:00,35.0,28.2,28.88,West,265,4.9,4.9,76,0.00,,---,0.00,VWS V14.00,2013-03-02 21:31:00,
2013-03-02 16:33:00,35.0,28.2,28.88,NW,316,3.1,3.6,76,0.00,,---,0.00,VWS V14.00,2013-03-02 21:33:00,
2013-03-02 16:35:00,35.0,28.2,28.88,West,261,5.4,5.4,76,0.00,,---,0.00,VWS V14.00,2013-03-02 21:35:00,
2013-03-02 16:36:00,35.0,28.2,28.88,SW,221,4.0,5.4,76,0.00,,---,0.00,VWS V14.00,2013-03-02 21:36:00,
2013-03-02 16:38:00,34.8,28.1,28.88,WNW,292,2.7,2.7,76,0.00,,---,0.00,VWS V14.00,2013-03-02 21:38:00,
2013-03-02 16:40:00,34.8,28.1,28.88,WNW,285,2.7,5.8,76,0.00,,---,0.00,VWS V14.00,2013-03-02 21:40:00,
2013-03-02 16:41:00,34.8,28.1,28.88,NW,317,6.3,6.3,76,0.00,,---,0.00,VWS V14.00,2013-03-02 21:41:00,
2013-03-02 16:42:00,34.8,28.1,28.88,SW,234,2.7,6.3,76,0.00,,---,0.00,VWS V14.00,2013-03-02 21:42:00,
2013-03-02 16:43:00,34.7,27.9,28.88,WNW,291,3.1,4.0,76,0.00,,---,0.00,VWS V14.00,2013-03-02 21:43:00,
2013-03-02 16:46:00,34.7,27.9,28.88,NW,307,3.1,3.6,76,0.00,,---,0.00,VWS V14.00,2013-03-02 21:46:00,
2013-03-02 16:47:00,34.7,27.9,28.88,NW,310,4.0,4.9,76,0.00,,---,0.00,VWS V14.00,2013-03-02 21:47:00,
2013-03-02 16:48:00,34.7,27.9,28.88,West,277,3.6,3.6,76,0.00,,---,0.00,VWS V14.00,2013-03-02 21:48:00,
2013-03-02 16:51:00,34.7,27.9,28.88,West,275,2.7,4.5,76,0.00,,---,0.00,VWS V14.00,2013-03-02 21:51:00,
2013-03-02 16:52:00,34.7,27.9,28.88,WSW,257,3.1,4.5,76,0.00,,---,0.00,VWS V14.00,2013-03-02 21:52:00,
2013-03-02 16:53:00,34.7,27.9,28.88,WNW,287,3.1,3.6,76,0.00,,---,0.00,VWS V14.00,2013-03-02 21:53:00,
2013-03-02 16:56:00,34.5,27.7,28.88,WNW,290,2.2,2.2,76,0.00,,---,0.00,VWS V14.00,2013-03-02 21:56:00,
2013-03-02 16:57:00,34.5,27.7,28.88,WNW,283,0.0,0.0,76,0.00,,---,0.00,VWS V14.00,2013-03-02 21:57:00,
2013-03-02 16:59:00,34.5,27.7,28.88,West,270,2.2,5.4,76,0.00,,---,0.00,VWS V14.00,2013-03-02 21:59:00,
2013-03-02 17:01:00,34.5,27.7,28.88,WNW,302,2.7,3.6,76,0.00,,---,0.00,VWS V14.00,2013-03-02 22:01:00,
2013-03-02 17:02:00,34.5,27.7,28.88,WNW,284,2.2,4.0,76,0.00,,---,0.00,VWS V14.00,2013-03-02 22:02:00,
2013-03-02 17:04:00,34.5,27.7,28.88,NNW,328,0.0,4.0,76,0.00,,---,0.00,VWS V14.00,2013-03-02 22:04:00,
2013-03-02 17:06:00,34.5,27.7,28.88,NW,306,2.7,5.4,76,0.00,,---,0.00,VWS V14.00,2013-03-02 22:06:00,
2013-03-02 17:07:00,34.5,27.7,28.88,NNW,339,2.2,4.0,76,0.00,,---,0.00,VWS V14.00,2013-03-02 22:07:00,
2013-03-02 17:09:00,34.5,27.7,28.88,WNW,296,0.0,0.0,76,0.00,,---,0.00,VWS V14.00,2013-03-02 22:09:00,
2013-03-02 17:11:00,34.5,27.7,28.88,WNW,303,0.0,5.8,76,0.00,,---,0.00,VWS V14.00,2013-03-02 22:11:00,
2013-03-02 17:12:00,34.3,27.5,28.88,NW,313,5.4,5.4,76,0.00,,---,0.00,VWS V14.00,2013-03-02 22:12:00,
2013-03-02 17:14:00,34.3,27.5,28.88,West,273,2.2,3.6,76,0.00,,---,0.00,VWS V14.00,2013-03-02 22:14:00,
2013-03-02 17:16:00,34.3,27.5,28.88,WSW,255,3.1,4.0,76,0.00,,---,0.00,VWS V14.00,2013-03-02 22:16:00,
2013-03-02 17:17:00,34.3,27.5,28.88,WNW,296,3.1,3.1,76,0.00,,---,0.00,VWS V14.00,2013-03-02 22:17:00,
2013-03-02 17:19:00,34.3,27.5,28.88,NNW,338,2.7,3.6,76,0.00,,---,0.00,VWS V14.00,2013-03-02 22:19:00,
2013-03-02 17:21:00,34.1,27.4,28.88,WNW,293,3.6,3.6,76,0.00,,---,0.00,VWS V14.00,2013-03-02 22:21:00,
2013-03-02 17:22:00,34.1,27.4,28.88,WNW,296,3.6,4.0,76,0.00,,---,0.00,VWS V14.00,2013-03-02 22:22:00,
2013-03-02 17:24:00,34.1,27.4,28.88,NW,305,2.7,3.1,76,0.00,,---,0.00,VWS V14.00,2013-03-02 22:24:00,
2013-03-02 17:26:00,34.1,27.4,28.88,WNW,302,0.0,0.0,76,0.00,,---,0.00,VWS V14.00,2013-03-02 22:26:00,
2013-03-02 17:27:00,34.1,27.4,28.88,WNW,292,3.6,3.6,76,0.00,,---,0.00,VWS V14.00,2013-03-02 22:27:00,
2013-03-02 17:29:00,33.9,27.2,28.88,WNW,286,6.3,6.3,76,0.00,,---,0.00,VWS V14.00,2013-03-02 22:29:00,
2013-03-02 17:31:00,33.9,27.2,28.88,WNW,299,3.6,4.0,76,0.00,,---,0.00,VWS V14.00,2013-03-02 22:31:00,
2013-03-02 17:32:00,33.9,27.2,28.88,WNW,298,4.0,4.9,76,0.00,,---,0.00,VWS V14.00,2013-03-02 22:32:00,
2013-03-02 17:34:00,33.9,27.2,28.88,NW,313,4.0,5.8,76,0.00,,---,0.00,VWS V14.00,2013-03-02 22:34:00,
2013-03-02 17:36:00,33.9,27.2,28.88,NW,311,4.9,4.9,76,0.00,,---,0.00,VWS V14.00,2013-03-02 22:36:00,
2013-03-02 17:37:00,33.9,27.2,28.88,WNW,302,0.0,3.6,76,0.00,,---,0.00,VWS V14.00,2013-03-02 22:37:00,
2013-03-02 17:40:00,33.8,27.0,28.88,NNW,344,3.6,3.6,76,0.00,,---,0.00,VWS V14.00,2013-03-02 22:40:00,
2013-03-02 17:41:00,33.8,27.0,28.88,WNW,296,2.2,4.9,76,0.00,,---,0.00,VWS V14.00,2013-03-02 22:41:00,
2013-03-02 17:42:00,33.8,27.0,28.88,WNW,300,0.0,0.0,76,0.00,,---,0.00,VWS V14.00,2013-03-02 22:42:00,
2013-03-02 17:45:00,33.8,27.0,28.88,NW,309,3.1,3.1,76,0.00,,---,0.00,VWS V14.00,2013-03-02 22:45:00,
2013-03-02 17:46:00,33.8,27.0,28.88,NNW,332,0.0,0.0,76,0.00,,---,0.00,VWS V14.00,2013-03-02 22:46:00,
2013-03-02 17:47:00,33.8,27.0,28.88,WNW,296,0.0,0.0,76,0.00,,---,0.00,VWS V14.00,2013-03-02 22:47:00,
2013-03-02 17:50:00,33.8,27.0,28.88,NW,306,0.0,0.0,76,0.00,,---,0.00,VWS V14.00,2013-03-02 22:50:00,
2013-03-02 17:51:00,33.8,27.0,28.88,NW,306,0.0,0.0,76,0.00,,---,0.00,VWS V14.00,2013-03-02 22:51:00,
2013-03-02 17:52:00,33.8,27.0,28.88,WNW,301,0.0,0.0,76,0.00,,---,0.00,VWS V14.00,2013-03-02 22:52:00,
2013-03-02 17:55:00,33.8,27.0,28.88,West,260,2.7,4.0,76,0.00,,---,0.00,VWS V14.00,2013-03-02 22:55:00,
2013-03-02 17:56:00,33.8,27.0,28.88,WNW,290,2.2,2.2,76,0.00,,---,0.00,VWS V14.00,2013-03-02 22:56:00,
2013-03-02 17:57:00,33.8,27.0,28.88,West,278,2.7,3.1,76,0.00,,---,0.00,VWS V14.00,2013-03-02 22:57:00,
2013-03-02 18:00:00,33.8,27.0,28.88,NW,309,3.1,5.4,76,0.00,,---,0.00,VWS V14.00,2013-03-02 23:00:00,
2013-03-02 18:01:00,33.8,27.0,28.88,NW,306,3.1,4.9,76,0.00,,---,0.00,VWS V14.00,2013-03-02 23:01:00,
2013-03-02 18:02:00,33.8,27.0,28.88,West,263,0.0,2.2,76,0.00,,---,0.00,VWS V14.00,2013-03-02 23:02:00,
2013-03-02 18:05:00,33.6,26.8,28.88,West,269,3.1,3.1,76,0.00,,---,0.00,VWS V14.00,2013-03-02 23:05:00,
2013-03-02 18:06:00,33.6,26.8,28.88,WSW,241,2.7,4.0,76,0.00,,---,0.00,VWS V14.00,2013-03-02 23:06:00,
2013-03-02 18:07:00,33.6,26.8,28.88,West,262,0.0,2.7,76,0.00,,---,0.00,VWS V14.00,2013-03-02 23:07:00,
2013-03-02 18:10:00,33.6,26.8,28.88,West,267,0.0,2.7,76,0.00,,---,0.00,VWS V14.00,2013-03-02 23:10:00,
2013-03-02 18:11:00,33.6,26.8,28.88,NW,305,0.0,3.1,76,0.00,,---,0.00,VWS V14.00,2013-03-02 23:11:00,
2013-03-02 18:12:00,33.6,26.8,28.88,WNW,300,0.0,3.1,76,0.00,,---,0.00,VWS V14.00,2013-03-02 23:12:00,
2013-03-02 18:15:00,33.6,26.8,28.88,NW,315,3.6,3.6,76,0.00,,---,0.00,VWS V14.00,2013-03-02 23:15:00,
2013-03-02 18:16:00,33.6,26.8,28.88,NW,312,0.0,3.6,76,0.00,,---,0.00,VWS V14.00,2013-03-02 23:16:00,
2013-03-02 18:17:00,33.6,26.8,28.88,WSW,257,2.7,3.6,76,0.00,,---,0.00,VWS V14.00,2013-03-02 23:17:00,
2013-03-02 18:20:00,33.4,28.2,28.88,WNW,299,3.1,3.6,81,0.00,,---,0.00,VWS V14.00,2013-03-02 23:20:00,
2013-03-02 18:21:00,33.4,28.2,28.88,WNW,299,0.0,0.0,81,0.00,,---,0.00,VWS V14.00,2013-03-02 23:21:00,
2013-03-02 18:22:00,33.4,28.2,28.88,West,280,4.0,4.0,81,0.00,,---,0.00,VWS V14.00,2013-03-02 23:22:00,
2013-03-02 18:25:00,33.4,28.2,28.88,WNW,285,0.0,0.0,81,0.00,,---,0.00,VWS V14.00,2013-03-02 23:25:00,
2013-03-02 18:26:00,33.4,28.2,28.88,WNW,299,2.2,2.2,81,0.00,,---,0.00,VWS V14.00,2013-03-02 23:26:00,
2013-03-02 18:27:00,33.4,28.2,28.88,West,277,0.0,2.2,81,0.00,,---,0.00,VWS V14.00,2013-03-02 23:27:00,
2013-03-02 18:30:00,33.4,28.2,28.88,West,276,2.2,4.0,81,0.00,,---,0.00,VWS V14.00,2013-03-02 23:30:00,
2013-03-02 18:31:00,33.4,28.2,28.88,WNW,293,3.1,4.0,81,0.00,,---,0.00,VWS V14.00,2013-03-02 23:31:00,
2013-03-02 18:32:00,33.4,28.2,28.88,NW,305,2.7,4.0,81,0.00,,---,0.00,VWS V14.00,2013-03-02 23:32:00,
2013-03-02 18:35:00,33.4,28.2,28.88,NW,307,3.6,3.6,81,0.00,,---,0.00,VWS V14.00,2013-03-02 23:35:00,
2013-03-02 18:36:00,33.4,28.2,28.88,WNW,292,2.7,2.7,81,0.00,,---,0.00,VWS V14.00,2013-03-02 23:36:00,
2013-03-02 18:37:00,33.4,28.2,28.88,WNW,298,3.1,3.1,81,0.00,,---,0.00,VWS V14.00,2013-03-02 23:37:00,
2013-03-02 18:40:00,33.4,28.2,28.88,WNW,290,2.7,3.1,81,0.00,,---,0.00,VWS V14.00,2013-03-02 23:40:00,
2013-03-02 18:41:00,33.4,28.2,28.88,NW,320,3.6,3.6,81,0.00,,---,0.00,VWS V14.00,2013-03-02 23:41:00,
2013-03-02 18:42:00,33.4,28.2,28.88,NW,316,2.2,3.6,81,0.00,,---,0.00,VWS V14.00,2013-03-02 23:42:00,
2013-03-02 18:45:00,33.4,28.2,28.88,NW,304,2.7,2.7,81,0.00,,---,0.00,VWS V14.00,2013-03-02 23:45:00,
2013-03-02 18:46:00,33.4,28.2,28.88,WNW,303,3.1,3.1,81,0.00,,---,0.00,VWS V14.00,2013-03-02 23:46:00,
2013-03-02 18:47:00,33.4,28.2,28.88,WNW,303,2.2,2.2,81,0.00,,---,0.00,VWS V14.00,2013-03-02 23:47:00,
2013-03-02 18:50:00,33.4,28.2,28.88,WNW,287,3.1,5.4,81,0.00,,---,0.00,VWS V14.00,2013-03-02 23:50:00,
2013-03-02 18:51:00,33.4,28.2,28.88,NNW,334,4.0,4.0,81,0.00,,---,0.00,VWS V14.00,2013-03-02 23:51:00,
2013-03-02 18:52:00,33.4,28.2,28.88,WNW,291,3.1,3.1,81,0.00,,---,0.00,VWS V14.00,2013-03-02 23:52:00,
2013-03-02 18:53:00,33.4,28.2,28.88,NW,314,0.0,3.1,81,0.00,,---,0.00,VWS V14.00,2013-03-02 23:53:00,
2013-03-02 18:56:00,33.4,28.2,28.88,NW,311,4.9,5.8,81,0.00,,---,0.00,VWS V14.00,2013-03-02 23:56:00,
2013-03-02 18:57:00,33.4,28.2,28.88,NW,307,4.0,4.9,81,0.00,,---,0.00,VWS V14.00,2013-03-02 23:57:00,
2013-03-02 18:58:00,33.4,28.2,28.88,NW,305,4.0,4.9,81,0.00,,---,0.00,VWS V14.00,2013-03-02 23:58:00,
2013-03-02 19:01:00,33.4,28.2,28.88,WNW,284,4.0,5.4,81,0.00,,---,0.00,VWS V14.00,2013-03-03 00:01:00,
2013-03-02 19:02:00,33.4,28.2,28.88,WNW,292,2.7,4.9,81,0.00,,---,0.00,VWS V14.00,2013-03-03 00:02:00,
2013-03-02 19:03:00,33.4,28.2,28.88,WNW,301,4.5,5.4,81,0.00,,---,0.00,VWS V14.00,2013-03-03 00:03:00,
2013-03-02 19:06:00,33.2,28.0,28.88,NNW,346,3.1,3.1,81,0.00,,---,0.00,VWS V14.00,2013-03-03 00:06:00,
2013-03-02 19:07:00,33.2,28.0,28.88,NNW,340,3.1,3.1,81,0.00,,---,0.00,VWS V14.00,2013-03-03 00:07:00,
2013-03-02 19:08:00,33.2,28.0,28.88,NW,317,4.9,4.9,81,0.00,,---,0.00,VWS V14.00,2013-03-03 00:08:00,
2013-03-02 19:11:00,33.2,28.0,28.88,WNW,299,3.6,3.6,81,0.00,,---,0.00,VWS V14.00,2013-03-03 00:11:00,
2013-03-02 19:12:00,33.2,28.0,28.88,WNW,302,0.0,3.6,81,0.00,,---,0.00,VWS V14.00,2013-03-03 00:12:00,
2013-03-02 19:13:00,33.2,28.0,28.88,WNW,302,2.7,2.7,81,0.00,,---,0.00,VWS V14.00,2013-03-03 00:13:00,
2013-03-02 19:16:00,33.2,28.0,28.88,NW,307,3.1,3.1,81,0.00,,---,0.00,VWS V14.00,2013-03-03 00:16:00,
2013-03-02 19:17:00,33.2,28.0,28.88,NW,304,0.0,3.1,81,0.00,,---,0.00,VWS V14.00,2013-03-03 00:17:00,
2013-03-02 19:18:00,33.2,28.0,28.88,NW,304,0.0,0.0,81,0.00,,---,0.00,VWS V14.00,2013-03-03 00:18:00,
2013-03-02 19:21:00,33.4,28.2,28.88,WNW,287,3.6,3.6,81,0.00,,---,0.00,VWS V14.00,2013-03-03 00:21:00,
2013-03-02 19:22:00,33.4,28.2,28.88,WNW,301,0.0,0.0,81,0.00,,---,0.00,VWS V14.00,2013-03-03 00:22:00,
2013-03-02 19:23:00,33.2,28.0,28.88,NNW,331,3.6,3.6,81,0.00,,---,0.00,VWS V14.00,2013-03-03 00:23:00,
2013-03-02 19:26:00,33.2,28.0,28.88,NW,308,4.0,5.4,81,0.00,,---,0.00,VWS V14.00,2013-03-03 00:26:00,
2013-03-02 19:27:00,33.2,28.0,28.88,WSW,247,4.9,5.4,81,0.00,,---,0.00,VWS V14.00,2013-03-03 00:27:00,
2013-03-02 19:28:00,33.2,28.0,28.88,West,274,2.7,5.8,81,0.00,,---,0.00,VWS V14.00,2013-03-03 00:28:00,
2013-03-02 19:31:00,33.2,28.0,28.88,NW,326,3.6,4.9,81,0.00,,---,0.00,VWS V14.00,2013-03-03 00:31:00,
2013-03-02 19:32:00,33.2,28.0,28.88,NW,315,4.0,5.4,81,0.00,,---,0.00,VWS V14.00,2013-03-03 00:32:00,
2013-03-02 19:33:00,33.2,28.0,28.88,NW,317,0.0,0.0,81,0.00,,---,0.00,VWS V14.00,2013-03-03 00:33:00,
2013-03-02 19:36:00,33.2,28.0,28.88,NNW,331,2.7,4.0,81,0.00,,---,0.00,VWS V14.00,2013-03-03 00:36:00,
2013-03-02 19:37:00,33.2,28.0,28.88,NW,320,3.1,4.0,81,0.00,,---,0.00,VWS V14.00,2013-03-03 00:37:00,
2013-03-02 19:38:00,33.2,28.0,28.88,WNW,303,2.2,3.6,81,0.00,,---,0.00,VWS V14.00,2013-03-03 00:38:00,
2013-03-02 19:41:00,33.0,27.9,28.88,NW,319,4.0,4.0,81,0.00,,---,0.00,VWS V14.00,2013-03-03 00:41:00,
2013-03-02 19:42:00,33.0,27.9,28.88,West,274,2.2,2.2,81,0.00,,---,0.00,VWS V14.00,2013-03-03 00:42:00,
2013-03-02 19:43:00,33.0,27.9,28.88,NW,310,3.6,3.6,81,0.00,,---,0.00,VWS V14.00,2013-03-03 00:43:00,
2013-03-02 19:46:00,33.0,27.9,28.88,NW,306,3.1,3.1,81,0.00,,---,0.00,VWS V14.00,2013-03-03 00:46:00,
2013-03-02 19:47:00,33.0,27.9,28.88,WNW,291,0.0,0.0,81,0.00,,---,0.00,VWS V14.00,2013-03-03 00:47:00,
2013-03-02 19:48:00,33.0,27.9,28.88,WNW,292,5.4,5.4,81,0.00,,---,0.00,VWS V14.00,2013-03-03 00:48:00,
2013-03-02 19:51:00,33.0,27.9,28.88,WNW,301,0.0,3.6,81,0.00,,---,0.00,VWS V14.00,2013-03-03 00:51:00,
2013-03-02 19:52:00,33.0,27.9,28.88,WNW,302,3.1,3.1,81,0.00,,---,0.00,VWS V14.00,2013-03-03 00:52:00,
2013-03-02 19:53:00,33.0,27.9,28.88,WNW,298,3.1,3.1,81,0.00,,---,0.00,VWS V14.00,2013-03-03 00:53:00,
2013-03-02 19:56:00,33.0,27.9,28.88,WNW,292,0.0,0.0,81,0.00,,---,0.00,VWS V14.00,2013-03-03 00:56:00,
2013-03-02 19:57:00,32.9,27.7,28.88,WNW,292,0.0,0.0,81,0.00,,---,0.00,VWS V14.00,2013-03-03 00:57:00,
2013-03-02 19:58:00,32.9,27.7,28.88,NW,321,0.0,0.0,81,0.00,,---,0.00,VWS V14.00,2013-03-03 00:58:00,
2013-03-02 20:01:00,33.0,27.9,28.88,West,262,2.7,2.7,81,0.00,,---,0.00,VWS V14.00,2013-03-03 01:01:00,
2013-03-02 20:02:00,33.0,27.9,28.88,NNW,341,3.1,3.1,81,0.00,,---,0.00,VWS V14.00,2013-03-03 01:02:00,
2013-03-02 20:03:00,33.0,27.9,28.88,West,259,4.0,4.0,81,0.00,,---,0.00,VWS V14.00,2013-03-03 01:03:00,
2013-03-02 20:07:00,32.9,27.7,28.88,NW,326,3.1,5.8,81,0.00,,---,0.00,VWS V14.00,2013-03-03 01:07:00,
2013-03-02 20:08:00,32.9,27.7,28.88,WNW,285,0.0,3.6,81,0.00,,---,0.00,VWS V14.00,2013-03-03 01:08:00,
2013-03-02 20:12:00,32.9,27.7,28.88,NW,315,3.6,4.0,81,0.00,,---,0.00,VWS V14.00,2013-03-03 01:12:00,
2013-03-02 20:13:00,32.9,27.7,28.88,NW,312,4.0,4.0,81,0.00,,---,0.00,VWS V14.00,2013-03-03 01:13:00,
2013-03-02 20:17:00,32.9,27.7,28.88,NW,313,3.6,4.9,81,0.00,,---,0.00,VWS V14.00,2013-03-03 01:17:00,
2013-03-02 20:18:00,32.9,27.7,28.88,NW,321,3.6,3.6,81,0.00,,---,0.00,VWS V14.00,2013-03-03 01:18:00,
2013-03-02 20:22:00,32.9,27.7,28.88,NW,309,3.6,3.6,81,0.00,,---,0.00,VWS V14.00,2013-03-03 01:22:00,
2013-03-02 20:23:00,32.9,27.7,28.88,NW,319,2.7,3.6,81,0.00,,---,0.00,VWS V14.00,2013-03-03 01:23:00,
2013-03-02 20:27:00,32.9,27.7,28.88,WNW,290,4.5,4.5,81,0.00,,---,0.00,VWS V14.00,2013-03-03 01:27:00,
2013-03-02 20:28:00,32.9,27.7,28.88,WNW,293,2.7,4.9,81,0.00,,---,0.00,VWS V14.00,2013-03-03 01:28:00,
2013-03-02 20:32:00,32.9,27.7,28.88,WNW,298,4.0,4.0,81,0.00,,---,0.00,VWS V14.00,2013-03-03 01:32:00,
2013-03-02 20:33:00,32.9,27.7,28.88,WNW,298,0.0,4.0,81,0.00,,---,0.00,VWS V14.00,2013-03-03 01:33:00,
2013-03-02 20:37:00,32.7,27.5,28.88,NW,315,0.0,4.0,81,0.00,,---,0.00,VWS V14.00,2013-03-03 01:37:00,
2013-03-02 20:38:00,32.7,27.5,28.88,West,279,0.0,3.6,81,0.00,,---,0.00,VWS V14.00,2013-03-03 01:38:00,
2013-03-02 20:42:00,32.7,27.5,28.88,NNW,334,4.0,6.3,81,0.00,,---,0.00,VWS V14.00,2013-03-03 01:42:00,
2013-03-02 20:43:00,32.7,27.5,28.88,NW,322,2.7,4.9,81,0.00,,---,0.00,VWS V14.00,2013-03-03 01:43:00,
2013-03-02 20:47:00,32.7,27.5,28.88,WNW,299,0.0,4.0,81,0.00,,---,0.00,VWS V14.00,2013-03-03 01:47:00,
2013-03-02 20:48:00,32.7,27.5,28.88,NW,315,0.0,2.2,81,0.00,,---,0.00,VWS V14.00,2013-03-03 01:48:00,
2013-03-02 20:52:00,32.5,27.3,28.88,WNW,300,0.0,3.1,81,0.00,,---,0.00,VWS V14.00,2013-03-03 01:52:00,
2013-03-02 20:53:00,32.5,27.3,28.88,NW,307,2.2,2.2,81,0.00,,---,0.00,VWS V14.00,2013-03-03 01:53:00,
2013-03-02 20:57:00,32.5,27.3,28.88,WNW,294,2.7,4.9,81,0.00,,---,0.00,VWS V14.00,2013-03-03 01:57:00,
2013-03-02 20:58:00,32.5,27.3,28.88,NNW,329,0.0,0.0,81,0.00,,---,0.00,VWS V14.00,2013-03-03 01:58:00,
2013-03-02 21:02:00,32.5,27.3,28.88,WNW,299,5.4,5.4,81,0.00,,---,0.00,VWS V14.00,2013-03-03 02:02:00,
2013-03-02 21:03:00,32.5,27.3,28.88,WNW,292,5.8,5.8,81,0.00,,---,0.00,VWS V14.00,2013-03-03 02:03:00,
2013-03-02 21:07:00,32.5,27.3,28.88,NW,306,4.0,4.0,81,0.00,,---,0.00,VWS V14.00,2013-03-03 02:07:00,
2013-03-02 21:08:00,32.5,27.3,28.88,West,280,6.3,6.3,81,0.00,,---,0.00,VWS V14.00,2013-03-03 02:08:00,
2013-03-02 21:12:00,32.3,27.1,28.88,NW,308,3.6,3.6,81,0.00,,---,0.00,VWS V14.00,2013-03-03 02:12:00,
2013-03-02 21:13:00,32.3,27.1,28.88,West,265,3.6,4.0,81,0.00,,---,0.00,VWS V14.00,2013-03-03 02:13:00,
2013-03-02 21:17:00,32.3,27.1,28.88,NW,320,3.6,3.6,81,0.00,,---,0.00,VWS V14.00,2013-03-03 02:17:00,
2013-03-02 21:18:00,32.3,27.1,28.88,NW,304,2.7,3.6,81,0.00,,---,0.00,VWS V14.00,2013-03-03 02:18:00,
2013-03-02 21:22:00,32.3,27.1,28.88,NW,305,4.0,4.9,81,0.00,,---,0.00,VWS V14.00,2013-03-03 02:22:00,
2013-03-02 21:23:00,32.3,27.1,28.88,NW,305,0.0,4.9,81,0.00,,---,0.00,VWS V14.00,2013-03-03 02:23:00,
2013-03-02 21:27:00,32.3,27.1,28.88,NW,326,2.7,4.0,81,0.00,,---,0.00,VWS V14.00,2013-03-03 02:27:00,
2013-03-02 21:28:00,32.3,27.1,28.88,West,277,2.7,4.0,81,0.00,,---,0.00,VWS V14.00,2013-03-03 02:28:00,
2013-03-02 21:32:00,32.1,27.0,28.88,WNW,289,5.8,5.8,81,0.00,,---,0.00,VWS V14.00,2013-03-03 02:32:00,
2013-03-02 21:33:00,32.1,27.0,28.88,NW,306,3.1,5.8,81,0.00,,---,0.00,VWS V14.00,2013-03-03 02:33:00,
2013-03-02 21:37:00,32.1,27.0,28.88,WNW,300,2.7,3.1,81,0.00,,---,0.00,VWS V14.00,2013-03-03 02:37:00,
2013-03-02 21:38:00,32.1,27.0,28.88,WNW,296,3.6,3.6,81,0.00,,---,0.00,VWS V14.00,2013-03-03 02:38:00,
2013-03-02 21:42:00,32.1,27.0,28.88,NW,315,2.2,2.2,81,0.00,,---,0.00,VWS V14.00,2013-03-03 02:42:00,
2013-03-02 21:43:00,32.1,27.0,28.88,NW,315,2.2,2.2,81,0.00,,---,0.00,VWS V14.00,2013-03-03 02:43:00,
2013-03-02 21:47:00,32.0,26.8,28.88,NW,308,2.7,2.7,81,0.00,,---,0.00,VWS V14.00,2013-03-03 02:47:00,
2013-03-02 21:48:00,32.0,26.8,28.88,West,272,4.9,4.9,81,0.00,,---,0.00,VWS V14.00,2013-03-03 02:48:00,
2013-03-02 21:49:00,32.0,26.8,28.88,NW,310,3.1,6.3,81,0.00,,---,0.00,VWS V14.00,2013-03-03 02:49:00,
2013-03-02 21:53:00,32.0,26.8,28.88,WNW,291,3.6,4.0,81,0.00,,---,0.00,VWS V14.00,2013-03-03 02:53:00,
2013-03-02 21:54:00,32.0,26.8,28.88,NW,313,3.1,3.1,81,0.00,,---,0.00,VWS V14.00,2013-03-03 02:54:00,
2013-03-02 21:58:00,32.0,26.8,28.88,NW,324,3.1,3.1,81,0.00,,---,0.00,VWS V14.00,2013-03-03 02:58:00,
2013-03-02 21:59:00,32.0,26.8,28.88,NW,317,4.9,4.9,81,0.00,,---,0.00,VWS V14.00,2013-03-03 02:59:00,
2013-03-02 22:03:00,32.0,26.8,28.88,NW,305,3.1,4.5,81,0.00,,---,0.00,VWS V14.00,2013-03-03 03:03:00,
2013-03-02 22:04:00,32.0,26.8,28.88,NW,315,4.9,4.9,81,0.00,,---,0.00,VWS V14.00,2013-03-03 03:04:00,
2013-03-02 22:08:00,32.0,26.8,28.88,West,278,3.6,6.7,81,0.00,,---,0.00,VWS V14.00,2013-03-03 03:08:00,
2013-03-02 22:09:00,32.0,26.8,28.88,NW,317,3.6,5.4,81,0.00,,---,0.00,VWS V14.00,2013-03-03 03:09:00,
2013-03-02 22:13:00,31.8,26.6,28.88,SSE,147,0.0,5.4,81,0.00,,---,0.00,VWS V14.00,2013-03-03 03:13:00,
2013-03-02 22:14:00,31.8,26.6,28.88,NNW,329,2.7,4.0,81,0.00,,---,0.00,VWS V14.00,2013-03-03 03:14:00,
2013-03-02 22:18:00,31.8,26.6,28.88,NNW,330,3.1,3.6,81,0.00,,---,0.00,VWS V14.00,2013-03-03 03:18:00,
2013-03-02 22:19:00,31.8,26.6,28.88,NW,323,4.0,4.5,81,0.00,,---,0.00,VWS V14.00,2013-03-03 03:19:00,
2013-03-02 22:23:00,31.8,26.6,28.88,NW,304,3.6,3.6,81,0.00,,---,0.00,VWS V14.00,2013-03-03 03:23:00,
2013-03-02 22:24:00,31.8,26.6,28.88,West,259,2.7,3.1,81,0.00,,---,0.00,VWS V14.00,2013-03-03 03:24:00,
2013-03-02 22:28:00,31.6,26.5,28.88,NW,307,2.7,2.7,81,0.00,,---,0.00,VWS V14.00,2013-03-03 03:28:00,
2013-03-02 22:29:00,31.6,26.5,28.88,WNW,300,0.0,0.0,81,0.00,,---,0.00,VWS V14.00,2013-03-03 03:29:00,
2013-03-02 22:33:00,31.6,26.5,28.88,North,357,2.2,2.2,81,0.00,,---,0.00,VWS V14.00,2013-03-03 03:33:00,
2013-03-02 22:34:00,31.6,26.5,28.88,WNW,299,3.6,3.6,81,0.00,,---,0.00,VWS V14.00,2013-03-03 03:34:00,
2013-03-02 22:38:00,31.4,26.3,28.88,WNW,301,0.0,5.4,81,0.00,,---,0.00,VWS V14.00,2013-03-03 03:38:00,
2013-03-02 22:39:00,31.4,26.3,28.88,ENE,70,2.7,2.7,81,0.00,,---,0.00,VWS V14.00,2013-03-03 03:39:00,
2013-03-02 22:43:00,31.4,26.3,28.88,NW,305,3.6,3.6,81,0.00,,---,0.00,VWS V14.00,2013-03-03 03:43:00,
2013-03-02 22:44:00,31.2,26.1,28.88,NW,321,0.0,3.6,81,0.00,,---,0.00,VWS V14.00,2013-03-03 03:44:00,
2013-03-02 22:48:00,31.2,26.1,28.88,WNW,300,2.2,4.9,81,0.00,,---,0.00,VWS V14.00,2013-03-03 03:48:00,
2013-03-02 22:49:00,31.2,26.1,28.88,WNW,300,0.0,2.2,81,0.00,,---,0.00,VWS V14.00,2013-03-03 03:49:00,
2013-03-02 22:50:00,31.2,26.1,28.88,WNW,288,0.0,2.2,81,0.00,,---,0.00,VWS V14.00,2013-03-03 03:50:00,
2013-03-02 22:53:00,31.1,25.9,28.88,WNW,302,3.1,3.6,81,0.00,,---,0.00,VWS V14.00,2013-03-03 03:53:00,
2013-03-02 22:54:00,31.1,25.9,28.88,WNW,302,3.1,3.6,81,0.00,,---,0.00,VWS V14.00,2013-03-03 03:54:00,
2013-03-02 22:55:00,31.1,25.9,28.88,WNW,286,3.1,5.4,81,0.00,,---,0.00,VWS V14.00,2013-03-03 03:55:00,
2013-03-02 22:58:00,31.1,25.9,28.88,NW,314,2.7,2.7,81,0.00,,---,0.00,VWS V14.00,2013-03-03 03:58:00,
2013-03-02 22:59:00,31.1,25.9,28.88,NNW,335,0.0,2.7,81,0.00,,---,0.00,VWS V14.00,2013-03-03 03:59:00,
2013-03-02 23:00:00,31.1,25.9,28.88,NNW,335,0.0,2.7,81,0.00,,---,0.00,VWS V14.00,2013-03-03 04:00:00,
2013-03-02 23:03:00,31.1,25.9,28.88,WSW,256,0.0,0.0,81,0.00,,---,0.00,VWS V14.00,2013-03-03 04:03:00,
2013-03-02 23:04:00,30.9,25.8,28.88,North,357,2.7,2.7,81,0.00,,---,0.00,VWS V14.00,2013-03-03 04:04:00,
2013-03-02 23:05:00,30.9,25.8,28.88,North,357,2.2,2.7,81,0.00,,---,0.00,VWS V14.00,2013-03-03 04:05:00,
2013-03-02 23:08:00,30.9,25.8,28.88,NNW,335,2.7,2.7,81,0.00,,---,0.00,VWS V14.00,2013-03-03 04:08:00,
2013-03-02 23:10:00,30.9,25.8,28.88,NNW,331,0.0,2.2,81,0.00,,---,0.00,VWS V14.00,2013-03-03 04:10:00,
2013-03-02 23:13:00,30.7,25.6,28.88,NW,305,0.0,4.0,81,0.00,,---,0.00,VWS V14.00,2013-03-03 04:13:00,
2013-03-02 23:14:00,30.7,25.6,28.88,NW,318,3.6,4.0,81,0.00,,---,0.00,VWS V14.00,2013-03-03 04:14:00,
2013-03-02 23:15:00,30.7,25.6,28.88,NW,318,0.0,3.1,81,0.00,,---,0.00,VWS V14.00,2013-03-03 04:15:00,
2013-03-02 23:19:00,30.5,25.4,28.88,NW,319,5.8,5.8,81,0.00,,---,0.00,VWS V14.00,2013-03-03 04:19:00,
2013-03-02 23:20:00,30.5,25.4,28.88,NW,325,3.1,4.9,81,0.00,,---,0.00,VWS V14.00,2013-03-03 04:20:00,
2013-03-02 23:24:00,30.3,25.2,28.88,WNW,301,2.7,2.7,81,0.00,,---,0.00,VWS V14.00,2013-03-03 04:24:00,
2013-03-02 23:25:00,30.3,25.2,28.88,WNW,292,0.0,4.9,81,0.00,,---,0.00,VWS V14.00,2013-03-03 04:25:00,
2013-03-02 23:29:00,30.3,25.2,28.88,WNW,301,0.0,3.1,81,0.00,,---,0.00,VWS V14.00,2013-03-03 04:29:00,
2013-03-02 23:30:00,30.3,25.2,28.88,NW,320,2.7,2.7,81,0.00,,---,0.00,VWS V14.00,2013-03-03 04:30:00,
2013-03-02 23:34:00,30.3,25.2,28.88,NW,306,3.1,3.6,81,0.00,,---,0.00,VWS V14.00,2013-03-03 04:34:00,
2013-03-02 23:35:00,30.3,25.2,28.88,NW,306,2.2,3.1,81,0.00,,---,0.00,VWS V14.00,2013-03-03 04:35:00,
2013-03-02 23:39:00,30.3,25.2,28.88,WNW,303,0.0,0.0,81,0.00,,---,0.00,VWS V14.00,2013-03-03 04:39:00,
2013-03-02 23:40:00,30.3,25.2,28.88,NW,315,0.0,2.7,81,0.00,,---,0.00,VWS V14.00,2013-03-03 04:40:00,
2013-03-02 23:44:00,30.3,25.2,28.88,NW,322,0.0,0.0,81,0.00,,---,0.00,VWS V14.00,2013-03-03 04:44:00,
2013-03-02 23:45:00,30.3,25.2,28.88,NW,321,0.0,0.0,81,0.00,,---,0.00,VWS V14.00,2013-03-03 04:45:00,
2013-03-02 23:49:00,30.3,25.2,28.88,WNW,301,0.0,0.0,81,0.00,,---,0.00,VWS V14.00,2013-03-03 04:49:00,
2013-03-02 23:50:00,30.3,25.2,28.88,NW,304,3.6,4.5,81,0.00,,---,0.00,VWS V14.00,2013-03-03 04:50:00,
2013-03-02 23:54:00,30.3,25.2,28.88,NNW,348,0.0,0.0,81,0.00,,---,0.00,VWS V14.00,2013-03-03 04:54:00,
2013-03-02 23:55:00,30.3,25.2,28.88,WNW,303,0.0,0.0,81,0.00,,---,0.00,VWS V14.00,2013-03-03 04:55:00,
2013-03-02 23:56:00,30.3,25.2,28.88,NW,325,2.7,2.7,81,0.00,,---,0.00,VWS V14.00,2013-03-03 04:56:00,
2013-03-02 23:59:00,30.3,25.2,28.88,WNW,303,0.0,2.7,81,0.00,,---,0.00,VWS V14.00,2013-03-03 04:59:00,